Observation data for Fritch on 06/17/2019      Previous  Date  Next       Current Mesonet Observations  Soil Data  Daily Summary Page  Observations in Plain Language
KFR1 170500Z 15006KT 19/15 A3002 RMK A01 T01860146  RH  078%=      5-min Rain = 0
KFR1 170501Z 15007KT 19/15 A3002 RMK A01 T01860146  RH  078%=      5-min Rain = 0
KFR1 170502Z 15007KT 19/15 A3002 RMK A01 T01850146  RH  078%=      5-min Rain = 0
KFR1 170503Z 16008KT 18/15 A3002 RMK A01 T01840146  RH  078%=      5-min Rain = 0
KFR1 170504Z 16008KT 18/15 A3002 RMK A01 T01830146  RH  079%=      5-min Rain = 0
KFR1 170505Z 16008KT 18/15 A3002 RMK A01 T01820146  RH  079%=      5-min Rain = 0
KFR1 170506Z 16008KT 18/15 A3002 RMK A01 T01820146  RH  079%=      5-min Rain = 0
KFR1 170507Z 16009KT 18/15 A3002 RMK A01 T01820146  RH  080%=      5-min Rain = 0
KFR1 170508Z 16009KT 18/15 A3002 RMK A01 T01820146  RH  080%=      5-min Rain = 0
KFR1 170509Z 16009KT 18/15 A3002 RMK A01 T01810146  RH  080%=      5-min Rain = 0
KFR1 170510Z 16008KT 18/15 A3002 RMK A01 T01810146  RH  080%=      5-min Rain = 0
KFR1 170511Z 15009KT 18/15 A3002 RMK A01 T01810147  RH  080%=      5-min Rain = 0
KFR1 170512Z 16009KT 18/15 A3002 RMK A01 T01810146  RH  080%=      5-min Rain = 0
KFR1 170513Z 16009KT 18/15 A3002 RMK A01 T01810146  RH  080%=      5-min Rain = 0
KFR1 170514Z 16009KT 18/15 A3002 RMK A01 T01810147  RH  080%=      5-min Rain = 0
KFR1 170515Z 16009KT 18/15 A3002 RMK A01 T01810147  RH  080%=      5-min Rain = 0
KFR1 170516Z 16009KT 18/15 A3002 RMK A01 T01810147  RH  081%=      5-min Rain = 0
KFR1 170517Z 16009KT 18/15 A3002 RMK A01 T01800146  RH  081%=      5-min Rain = 0
KFR1 170518Z 15009KT 18/15 A3002 RMK A01 T01800146  RH  080%=      5-min Rain = 0
KFR1 170519Z 16008KT 18/15 A3002 RMK A01 T01800146  RH  080%=      5-min Rain = 0
KFR1 170520Z 15007KT 18/15 A3002 RMK A01 T01800146  RH  080%=      5-min Rain = 0
KFR1 170521Z 16006KT 18/15 A3002 RMK A01 T01800146  RH  080%=      5-min Rain = 0
KFR1 170522Z 15006KT 18/15 A3002 RMK A01 T01800145  RH  080%=      5-min Rain = 0
KFR1 170523Z 14008KT 18/15 A3002 RMK A01 T01810145  RH  079%=      5-min Rain = 0
KFR1 170524Z 13008KT 18/15 A3002 RMK A01 T01820145  RH  079%=      5-min Rain = 0
KFR1 170525Z 13009KT 18/15 A3002 RMK A01 T01830145  RH  078%=      5-min Rain = 0
KFR1 170526Z 12009KT 18/15 A3001 RMK A01 T01830145  RH  079%=      5-min Rain = 0
KFR1 170527Z 12010KT 18/14 A3001 RMK A01 T01810144  RH  079%=      5-min Rain = 0
KFR1 170528Z 13009KT 18/15 A3001 RMK A01 T01800145  RH  080%=      5-min Rain = 0
KFR1 170529Z 13008KT 18/15 A3001 RMK A01 T01800145  RH  080%=      5-min Rain = 0
KFR1 170530Z 13008KT 18/15 A3001 RMK A01 T01820145  RH  079%=      5-min Rain = 0
KFR1 170531Z 13008KT 19/15 A3001 RMK A01 T01850145  RH  077%=      5-min Rain = 0
KFR1 170532Z 13007KT 19/15 A3002 RMK A01 T01880145  RH  076%=      5-min Rain = 0
KFR1 170533Z 13007KT 19/15 A3002 RMK A01 T01890145  RH  075%=      5-min Rain = 0
KFR1 170534Z 13007KT 19/15 A3002 RMK A01 T01900145  RH  075%=      5-min Rain = 0
KFR1 170535Z 13006KT 19/15 A3002 RMK A01 T01900145  RH  075%=      5-min Rain = 0
KFR1 170536Z 13007KT 19/15 A3002 RMK A01 T01910145  RH  074%=      5-min Rain = 0
KFR1 170537Z 14007KT 19/14 A3002 RMK A01 T01910144  RH  074%=      5-min Rain = 0
KFR1 170538Z 14006KT 19/15 A3002 RMK A01 T01910145  RH  074%=      5-min Rain = 0
KFR1 170539Z 14007KT 19/15 A3002 RMK A01 T01910145  RH  075%=      5-min Rain = 0
KFR1 170540Z 14006KT 19/15 A3002 RMK A01 T01910145  RH  075%=      5-min Rain = 0
KFR1 170541Z 15005KT 19/15 A3002 RMK A01 T01910145  RH  075%=      5-min Rain = 0
KFR1 170542Z 15005KT 19/15 A3002 RMK A01 T01890145  RH  075%=      5-min Rain = 0
KFR1 170543Z 14006KT 19/15 A3002 RMK A01 T01880145  RH  076%=      5-min Rain = 0
KFR1 170544Z 14007KT 19/15 A3002 RMK A01 T01870145  RH  077%=      5-min Rain = 0
KFR1 170545Z 14007KT 19/15 A3002 RMK A01 T01860145  RH  077%=      5-min Rain = 0
KFR1 170546Z 14005KT 19/15 A3001 RMK A01 T01850145  RH  078%=      5-min Rain = 0
KFR1 170547Z 14006KT 19/15 A3001 RMK A01 T01850146  RH  078%=      5-min Rain = 0
KFR1 170548Z 14005KT 18/15 A3001 RMK A01 T01840146  RH  078%=      5-min Rain = 0
KFR1 170549Z 14005KT 18/15 A3001 RMK A01 T01830146  RH  078%=      5-min Rain = 0
KFR1 170550Z 15005KT 18/15 A3002 RMK A01 T01830146  RH  079%=      5-min Rain = 0
KFR1 170551Z 14005KT 18/15 A3002 RMK A01 T01830146  RH  079%=      5-min Rain = 0
KFR1 170552Z 15005KT 18/15 A3002 RMK A01 T01820146  RH  079%=      5-min Rain = 0
KFR1 170553Z 16005KT 18/15 A3002 RMK A01 T01810145  RH  080%=      5-min Rain = 0
KFR1 170554Z 16005KT 18/15 A3002 RMK A01 T01790145  RH  081%=      5-min Rain = 0
KFR1 170555Z 16005KT 18/15 A3002 RMK A01 T01780145  RH  081%=      5-min Rain = 0
KFR1 170556Z 16005KT 18/15 A3002 RMK A01 T01770145  RH  082%=      5-min Rain = 0
KFR1 170557Z 16005KT 18/15 A3002 RMK A01 T01760145  RH  082%=      5-min Rain = 0
KFR1 170558Z 16006KT 18/15 A3002 RMK A01 T01750145  RH  082%=      5-min Rain = 0
KFR1 170559Z 16006KT 17/15 A3002 RMK A01 T01740145  RH  083%=      5-min Rain = 0
KFR1 170600Z 16006KT 17/15 A3002 RMK A01 T01740145  RH  083%=      5-min Rain = 0
KFR1 170601Z 15006KT 17/15 A3002 RMK A01 T01740145  RH  083%=      5-min Rain = 0
KFR1 170602Z 16005KT 17/15 A3002 RMK A01 T01730145  RH  084%=      5-min Rain = 0
KFR1 170603Z 15005KT 17/15 A3002 RMK A01 T01730145  RH  084%=      5-min Rain = 0
KFR1 170604Z 15005KT 17/15 A3001 RMK A01 T01730145  RH  084%=      5-min Rain = 0
KFR1 170605Z 14006KT 17/15 A3001 RMK A01 T01720145  RH  084%=      5-min Rain = 0
KFR1 170606Z 15006KT 17/15 A3001 RMK A01 T01730145  RH  084%=      5-min Rain = 0
KFR1 170607Z 14007KT 17/15 A3001 RMK A01 T01730145  RH  084%=      5-min Rain = 0
KFR1 170608Z 14007KT 18/15 A3001 RMK A01 T01750146  RH  083%=      5-min Rain = 0
KFR1 170609Z 14007KT 18/15 A3001 RMK A01 T01760146  RH  083%=      5-min Rain = 0
KFR1 170610Z 14008KT 18/15 A3001 RMK A01 T01770146  RH  082%=      5-min Rain = 0
KFR1 170611Z 14008KT 18/15 A3001 RMK A01 T01770146  RH  082%=      5-min Rain = 0
KFR1 170612Z 14008KT 18/15 A3001 RMK A01 T01780146  RH  082%=      5-min Rain = 0
KFR1 170613Z 14008KT 18/15 A3001 RMK A01 T01780147  RH  082%=      5-min Rain = 0
KFR1 170614Z 14008KT 18/15 A3001 RMK A01 T01780147  RH  082%=      5-min Rain = 0
KFR1 170615Z 15007KT 18/15 A3001 RMK A01 T01780147  RH  082%=      5-min Rain = 0
KFR1 170616Z 15007KT 18/15 A3001 RMK A01 T01780147  RH  082%=      5-min Rain = 0
KFR1 170617Z 15007KT 18/15 A3001 RMK A01 T01780147  RH  082%=      5-min Rain = 0
KFR1 170618Z 14006KT 18/15 A3001 RMK A01 T01770146  RH  082%=      5-min Rain = 0
KFR1 170619Z 15006KT 18/15 A3001 RMK A01 T01770147  RH  083%=      5-min Rain = 0
KFR1 170620Z 15007KT 18/15 A3001 RMK A01 T01760147  RH  083%=      5-min Rain = 0
KFR1 170621Z 15006KT 18/15 A3001 RMK A01 T01760147  RH  083%=      5-min Rain = 0
KFR1 170622Z 15006KT 18/15 A3001 RMK A01 T01760147  RH  083%=      5-min Rain = 0
KFR1 170623Z 15007KT 18/15 A3001 RMK A01 T01760147  RH  083%=      5-min Rain = 0
KFR1 170624Z 15007KT 18/15 A3001 RMK A01 T01750146  RH  083%=      5-min Rain = 0
KFR1 170625Z 15007KT 18/15 A3001 RMK A01 T01750147  RH  084%=      5-min Rain = 0
KFR1 170626Z 15007KT 17/15 A3001 RMK A01 T01740147  RH  084%=      5-min Rain = 0
KFR1 170627Z 15007KT 17/15 A3001 RMK A01 T01740147  RH  084%=      5-min Rain = 0
KFR1 170628Z 16007KT 17/15 A3001 RMK A01 T01740146  RH  084%=      5-min Rain = 0
KFR1 170629Z 16008KT 17/15 A3001 RMK A01 T01730146  RH  084%=      5-min Rain = 0
KFR1 170630Z 16008KT 17/15 A3001 RMK A01 T01730147  RH  084%=      5-min Rain = 0
KFR1 170631Z 16008KT 17/15 A3001 RMK A01 T01730147  RH  084%=      5-min Rain = 0
KFR1 170632Z 16008KT 17/15 A3001 RMK A01 T01730147  RH  085%=      5-min Rain = 0
KFR1 170633Z 16009KT 17/15 A3001 RMK A01 T01730147  RH  085%=      5-min Rain = 0
KFR1 170634Z 16008KT 17/15 A3002 RMK A01 T01730148  RH  085%=      5-min Rain = 0
KFR1 170635Z 16008KT 17/15 A3002 RMK A01 T01740148  RH  085%=      5-min Rain = 0
KFR1 170636Z 16008KT 17/15 A3002 RMK A01 T01740148  RH  085%=      5-min Rain = 0
KFR1 170637Z 16007KT 17/15 A3002 RMK A01 T01740148  RH  085%=      5-min Rain = 0
KFR1 170638Z 16007KT 18/15 A3002 RMK A01 T01750149  RH  084%=      5-min Rain = 0
KFR1 170639Z 17007KT 18/15 A3002 RMK A01 T01750148  RH  084%=      5-min Rain = 0
KFR1 170640Z 17007KT 18/15 A3002 RMK A01 T01750148  RH  084%=      5-min Rain = 0
KFR1 170641Z 17007KT 18/15 A3001 RMK A01 T01750148  RH  084%=      5-min Rain = 0
KFR1 170642Z 17007KT 18/15 A3001 RMK A01 T01750148  RH  084%=      5-min Rain = 0
KFR1 170643Z 18007KT 18/15 A3001 RMK A01 T01750148  RH  084%=      5-min Rain = 0
KFR1 170644Z 18007KT 18/15 A3001 RMK A01 T01750148  RH  084%=      5-min Rain = 0
KFR1 170645Z 18006KT 17/15 A3001 RMK A01 T01740147  RH  084%=      5-min Rain = 0
KFR1 170646Z 18007KT 17/15 A3001 RMK A01 T01730147  RH  084%=      5-min Rain = 0
KFR1 170647Z 18007KT 17/15 A3001 RMK A01 T01730147  RH  084%=      5-min Rain = 0
KFR1 170648Z 18007KT 17/15 A3001 RMK A01 T01730147  RH  084%=      5-min Rain = 0
KFR1 170649Z 18007KT 17/15 A3001 RMK A01 T01730147  RH  084%=      5-min Rain = 0
KFR1 170650Z 18007KT 17/15 A3001 RMK A01 T01730147  RH  084%=      5-min Rain = 0
KFR1 170651Z 18006KT 17/15 A3001 RMK A01 T01730146  RH  084%=      5-min Rain = 0
KFR1 170652Z 18006KT 17/15 A3001 RMK A01 T01730146  RH  084%=      5-min Rain = 0
KFR1 170653Z 18006KT 17/15 A3001 RMK A01 T01730146  RH  084%=      5-min Rain = 0
KFR1 170654Z 18006KT 17/15 A3001 RMK A01 T01730146  RH  084%=      5-min Rain = 0
KFR1 170655Z 17005KT 17/15 A3001 RMK A01 T01730147  RH  084%=      5-min Rain = 0
KFR1 170656Z 17004KT 17/15 A3001 RMK A01 T01730146  RH  084%=      5-min Rain = 0
KFR1 170657Z 17004KT 17/15 A3001 RMK A01 T01720146  RH  085%=      5-min Rain = 0
KFR1 170658Z 17004KT 17/15 A3001 RMK A01 T01720146  RH  085%=      5-min Rain = 0
KFR1 170659Z 17003KT 17/15 A3001 RMK A01 T01720146  RH  085%=      5-min Rain = 0
KFR1 170700Z 17003KT 17/15 A3001 RMK A01 T01720146  RH  085%=      5-min Rain = 0
KFR1 170701Z 16003KT 17/15 A3001 RMK A01 T01710146  RH  085%=      5-min Rain = 0
KFR1 170702Z 16003KT 17/15 A3001 RMK A01 T01710146  RH  085%=      5-min Rain = 0
KFR1 170703Z 14001KT 17/15 A3001 RMK A01 T01710146  RH  085%=      5-min Rain = 0
KFR1 170704Z 14002KT 17/15 A3002 RMK A01 T01710146  RH  085%=      5-min Rain = 0
KFR1 170705Z 15002KT 17/15 A3002 RMK A01 T01700146  RH  086%=      5-min Rain = 0
KFR1 170706Z 14002KT 17/15 A3002 RMK A01 T01700147  RH  086%=      5-min Rain = 0
KFR1 170707Z 11002KT 17/15 A3002 RMK A01 T01700148  RH  087%=      5-min Rain = 0
KFR1 170708Z 12002KT 17/15 A3002 RMK A01 T01700148  RH  087%=      5-min Rain = 0
KFR1 170709Z 12002KT 17/15 A3002 RMK A01 T01700149  RH  087%=      5-min Rain = 0
KFR1 170710Z 13001KT 17/15 A3002 RMK A01 T01690147  RH  087%=      5-min Rain = 0
KFR1 170711Z 12002KT 17/15 A3002 RMK A01 T01690147  RH  087%=      5-min Rain = 0
KFR1 170712Z 06001KT 17/15 A3002 RMK A01 T01680147  RH  087%=      5-min Rain = 0
KFR1 170713Z 04003KT 17/15 A3002 RMK A01 T01670146  RH  087%=      5-min Rain = 0
KFR1 170714Z 04004KT 17/15 A3002 RMK A01 T01670146  RH  087%=      5-min Rain = 0
KFR1 170715Z 03004KT 17/15 A3002 RMK A01 T01660145  RH  088%=      5-min Rain = 0
KFR1 170716Z 04004KT 17/14 A3002 RMK A01 T01650144  RH  087%=      5-min Rain = 0
KFR1 170717Z 05004KT 16/14 A3002 RMK A01 T01640143  RH  087%=      5-min Rain = 0
KFR1 170718Z 06003KT 16/14 A3002 RMK A01 T01630142  RH  088%=      5-min Rain = 0
KFR1 170719Z 05002KT 16/14 A3002 RMK A01 T01620143  RH  088%=      5-min Rain = 0
KFR1 170720Z 02001KT 16/14 A3002 RMK A01 T01620144  RH  089%=      5-min Rain = 0
KFR1 170721Z 35002KT 16/15 A3002 RMK A01 T01620145  RH  090%=      5-min Rain = 0
KFR1 170722Z 33002KT 16/15 A3002 RMK A01 T01630146  RH  089%=      5-min Rain = 0
KFR1 170723Z 26001KT 16/15 A3002 RMK A01 T01640145  RH  089%=      5-min Rain = 0
KFR1 170724Z 00000KT 16/14 A3002 RMK A01 T01640144  RH  088%=      5-min Rain = 0
KFR1 170725Z 00000KT 16/15 A3002 RMK A01 T01630145  RH  089%=      5-min Rain = 0
KFR1 170726Z 07000KT 16/15 A3002 RMK A01 T01640148  RH  090%=      5-min Rain = 0
KFR1 170727Z 08001KT 17/15 A3002 RMK A01 T01650149  RH  090%=      5-min Rain = 0
KFR1 170728Z 06001KT 17/15 A3002 RMK A01 T01660149  RH  089%=      5-min Rain = 0
KFR1 170729Z 09000KT 17/15 A3002 RMK A01 T01660148  RH  089%=      5-min Rain = 0
KFR1 170730Z 00000KT 17/15 A3002 RMK A01 T01670148  RH  089%=      5-min Rain = 0
KFR1 170731Z 00000KT 17/15 A3002 RMK A01 T01670149  RH  089%=      5-min Rain = 0
KFR1 170732Z 08001KT 17/15 A3002 RMK A01 T01670149  RH  089%=      5-min Rain = 0
KFR1 170733Z 10001KT 17/15 A3002 RMK A01 T01680149  RH  089%=      5-min Rain = 0
KFR1 170734Z 06001KT 17/15 A3002 RMK A01 T01680148  RH  088%=      5-min Rain = 0
KFR1 170735Z 07003KT 17/15 A3002 RMK A01 T01690148  RH  088%=      5-min Rain = 0
KFR1 170736Z 08003KT 17/15 A3002 RMK A01 T01690147  RH  087%=      5-min Rain = 0
KFR1 170737Z 08002KT 17/15 A3002 RMK A01 T01680146  RH  087%=      5-min Rain = 0
KFR1 170738Z 08002KT 17/15 A3002 RMK A01 T01680146  RH  087%=      5-min Rain = 0
KFR1 170739Z 08002KT 17/15 A3001 RMK A01 T01670146  RH  087%=      5-min Rain = 0
KFR1 170740Z 10002KT 17/15 A3001 RMK A01 T01670146  RH  088%=      5-min Rain = 0
KFR1 170741Z 10002KT 17/15 A3001 RMK A01 T01670147  RH  088%=      5-min Rain = 0
KFR1 170742Z 11002KT 17/15 A3001 RMK A01 T01660146  RH  088%=      5-min Rain = 0
KFR1 170743Z 12002KT 17/15 A3001 RMK A01 T01670147  RH  088%=      5-min Rain = 0
KFR1 170744Z 11001KT 17/15 A3001 RMK A01 T01660147  RH  088%=      5-min Rain = 0
KFR1 170745Z 08001KT 17/15 A3001 RMK A01 T01660147  RH  088%=      5-min Rain = 0
KFR1 170746Z 09001KT 17/15 A3001 RMK A01 T01660147  RH  088%=      5-min Rain = 0
KFR1 170747Z 10000KT 17/15 A3001 RMK A01 T01660146  RH  088%=      5-min Rain = 0
KFR1 170748Z 08001KT 17/15 A3001 RMK A01 T01660147  RH  089%=      5-min Rain = 0
KFR1 170749Z 07000KT 17/15 A3001 RMK A01 T01660148  RH  089%=      5-min Rain = 0
KFR1 170750Z 08000KT 17/15 A3001 RMK A01 T01660148  RH  089%=      5-min Rain = 0
KFR1 170751Z 09000KT 17/15 A3001 RMK A01 T01660148  RH  089%=      5-min Rain = 0
KFR1 170752Z 00000KT 17/15 A3001 RMK A01 T01660148  RH  089%=      5-min Rain = 0
KFR1 170753Z 00000KT 17/15 A3001 RMK A01 T01660148  RH  089%=      5-min Rain = 0
KFR1 170754Z 00000KT 17/15 A3001 RMK A01 T01660148  RH  089%=      5-min Rain = 0
KFR1 170755Z 00000KT 17/15 A3001 RMK A01 T01660148  RH  089%=      5-min Rain = 0
KFR1 170756Z 21000KT 17/15 A3001 RMK A01 T01660148  RH  089%=      5-min Rain = 0
KFR1 170757Z 24001KT 17/15 A3001 RMK A01 T01660148  RH  089%=      5-min Rain = 0
KFR1 170758Z 26002KT 17/15 A3001 RMK A01 T01660149  RH  089%=      5-min Rain = 0
KFR1 170759Z 26002KT 17/15 A3001 RMK A01 T01670149  RH  089%=      5-min Rain = 0
KFR1 170800Z 26003KT 17/15 A3001 RMK A01 T01680149  RH  089%=      5-min Rain = 0
KFR1 170801Z 25003KT 17/15 A3001 RMK A01 T01680149  RH  089%=      5-min Rain = 0
KFR1 170802Z 25002KT 17/15 A3001 RMK A01 T01680149  RH  088%=      5-min Rain = 0
KFR1 170803Z 26003KT 17/15 A3001 RMK A01 T01680149  RH  088%=      5-min Rain = 0
KFR1 170804Z 26003KT 17/15 A3001 RMK A01 T01690150  RH  088%=      5-min Rain = 0
KFR1 170805Z 26002KT 17/15 A3001 RMK A01 T01690149  RH  088%=      5-min Rain = 0
KFR1 170806Z 27002KT 17/15 A3001 RMK A01 T01690149  RH  088%=      5-min Rain = 0
KFR1 170807Z 28002KT 17/15 A3001 RMK A01 T01690149  RH  088%=      5-min Rain = 0
KFR1 170808Z 30002KT 17/15 A3001 RMK A01 T01680148  RH  088%=      5-min Rain = 0
KFR1 170809Z 30001KT 17/15 A3001 RMK A01 T01680148  RH  088%=      5-min Rain = 0
KFR1 170810Z 27000KT 17/15 A3001 RMK A01 T01670148  RH  088%=      5-min Rain = 0
KFR1 170811Z 00000KT 17/15 A3001 RMK A01 T01670148  RH  089%=      5-min Rain = 0
KFR1 170812Z 25001KT 17/15 A3001 RMK A01 T01670148  RH  089%=      5-min Rain = 0
KFR1 170813Z 26000KT 17/15 A3001 RMK A01 T01660148  RH  089%=      5-min Rain = 0
KFR1 170814Z 24000KT 17/15 A3001 RMK A01 T01660149  RH  089%=      5-min Rain = 0
KFR1 170815Z 00000KT 17/15 A3001 RMK A01 T01660149  RH  089%=      5-min Rain = 0
KFR1 170816Z 00000KT 17/15 A3001 RMK A01 T01660149  RH  089%=      5-min Rain = 0
KFR1 170817Z 00000KT 17/15 A3001 RMK A01 T01660149  RH  090%=      5-min Rain = 0
KFR1 170818Z 26000KT 17/15 A3001 RMK A01 T01660150  RH  090%=      5-min Rain = 0
KFR1 170819Z 25001KT 17/15 A3001 RMK A01 T01670150  RH  090%=      5-min Rain = 0
KFR1 170820Z 27001KT 17/15 A3001 RMK A01 T01680150  RH  089%=      5-min Rain = 0
KFR1 170821Z 25001KT 17/15 A3001 RMK A01 T01680150  RH  089%=      5-min Rain = 0
KFR1 170822Z 22002KT 17/15 A3001 RMK A01 T01690150  RH  089%=      5-min Rain = 0
KFR1 170823Z 23002KT 17/15 A3001 RMK A01 T01690150  RH  088%=      5-min Rain = 0
KFR1 170824Z 22002KT 17/15 A3001 RMK A01 T01690150  RH  088%=      5-min Rain = 0
KFR1 170825Z 25001KT 17/15 A3001 RMK A01 T01690150  RH  088%=      5-min Rain = 0
KFR1 170826Z 24000KT 17/15 A3001 RMK A01 T01700150  RH  088%=      5-min Rain = 0
KFR1 170827Z 27000KT 17/15 A3001 RMK A01 T01700150  RH  088%=      5-min Rain = 0
KFR1 170828Z 00000KT 17/15 A3001 RMK A01 T01710150  RH  088%=      5-min Rain = 0
KFR1 170829Z 00000KT 17/15 A3001 RMK A01 T01710150  RH  088%=      5-min Rain = 0
KFR1 170830Z 00000KT 17/15 A3001 RMK A01 T01700149  RH  087%=      5-min Rain = 0
KFR1 170831Z 00000KT 17/15 A3001 RMK A01 T01700149  RH  088%=      5-min Rain = 0
KFR1 170832Z 00000KT 17/15 A3001 RMK A01 T01690149  RH  088%=      5-min Rain = 0
KFR1 170833Z 27000KT 17/15 A3001 RMK A01 T01690149  RH  088%=      5-min Rain = 0
KFR1 170834Z 28001KT 17/15 A3001 RMK A01 T01690149  RH  088%=      5-min Rain = 0
KFR1 170835Z 29002KT 17/15 A3001 RMK A01 T01690149  RH  088%=      5-min Rain = 0
KFR1 170836Z 29002KT 17/15 A3001 RMK A01 T01690149  RH  088%=      5-min Rain = 0
KFR1 170837Z 29002KT 17/15 A3001 RMK A01 T01690150  RH  088%=      5-min Rain = 0
KFR1 170838Z 27001KT 17/15 A3001 RMK A01 T01690149  RH  088%=      5-min Rain = 0
KFR1 170839Z 27002KT 17/15 A3001 RMK A01 T01680149  RH  088%=      5-min Rain = 0
KFR1 170840Z 27002KT 17/15 A3001 RMK A01 T01680149  RH  089%=      5-min Rain = 0
KFR1 170841Z 27003KT 17/15 A3001 RMK A01 T01680150  RH  089%=      5-min Rain = 0
KFR1 170842Z 27003KT 17/15 A3001 RMK A01 T01680151  RH  089%=      5-min Rain = 0
KFR1 170843Z 26003KT 17/15 A3001 RMK A01 T01680152  RH  090%=      5-min Rain = 0
KFR1 170844Z 26003KT 17/15 A3001 RMK A01 T01670151  RH  090%=      5-min Rain = 0
KFR1 170845Z 25003KT 17/15 A3001 RMK A01 T01670151  RH  091%=      5-min Rain = 0
KFR1 170846Z 26003KT 17/15 A3001 RMK A01 T01660151  RH  091%=      5-min Rain = 0
KFR1 170847Z 26002KT 17/15 A3001 RMK A01 T01650150  RH  090%=      5-min Rain = 0
KFR1 170848Z 26002KT 16/15 A3001 RMK A01 T01640148  RH  090%=      5-min Rain = 0
KFR1 170849Z 24002KT 16/15 A3001 RMK A01 T01630149  RH  091%=      5-min Rain = 0
KFR1 170850Z 23002KT 16/15 A3002 RMK A01 T01620147  RH  091%=      5-min Rain = 0
KFR1 170851Z 25002KT 16/15 A3002 RMK A01 T01610146  RH  091%=      5-min Rain = 0
KFR1 170852Z 26003KT 16/15 A3002 RMK A01 T01600146  RH  091%=      5-min Rain = 0
KFR1 170853Z 26003KT 16/15 A3002 RMK A01 T01600148  RH  092%=      5-min Rain = 0
KFR1 170854Z 25003KT 16/15 A3002 RMK A01 T01610150  RH  093%=      5-min Rain = 0
KFR1 170855Z 27003KT 16/15 A3002 RMK A01 T01610151  RH  093%=      5-min Rain = 0
KFR1 170856Z 27002KT 16/15 A3002 RMK A01 T01620153  RH  094%=      5-min Rain = 0
KFR1 170857Z 28002KT 16/15 A3002 RMK A01 T01630154  RH  094%=      5-min Rain = 0
KFR1 170858Z 28002KT 16/15 A3002 RMK A01 T01640154  RH  094%=      5-min Rain = 0
KFR1 170859Z 27002KT 16/15 A3002 RMK A01 T01640154  RH  094%=      5-min Rain = 0
KFR1 170900Z 27002KT 16/16 A3002 RMK A01 T01640155  RH  094%=      5-min Rain = 0
KFR1 170901Z 25003KT 17/16 A3002 RMK A01 T01650155  RH  094%=      5-min Rain = 0
KFR1 170902Z 25003KT 16/15 A3002 RMK A01 T01640153  RH  093%=      5-min Rain = 0
KFR1 170903Z 25003KT 16/15 A3002 RMK A01 T01610149  RH  092%=      5-min Rain = 0
KFR1 170904Z 26003KT 16/15 A3002 RMK A01 T01610149  RH  093%=      5-min Rain = 0
KFR1 170905Z 26003KT 16/15 A3002 RMK A01 T01600149  RH  093%=      5-min Rain = 0
KFR1 170906Z 26004KT 16/15 A3002 RMK A01 T01600150  RH  093%=      5-min Rain = 0
KFR1 170907Z 26004KT 16/15 A3002 RMK A01 T01610151  RH  094%=      5-min Rain = 0
KFR1 170908Z 26003KT 16/15 A3002 RMK A01 T01610152  RH  094%=      5-min Rain = 0
KFR1 170909Z 26003KT 16/15 A3002 RMK A01 T01610153  RH  095%=      5-min Rain = 0
KFR1 170910Z 26003KT 16/15 A3002 RMK A01 T01620154  RH  095%=      5-min Rain = 0
KFR1 170911Z 27002KT 16/15 A3002 RMK A01 T01620154  RH  095%=      5-min Rain = 0
KFR1 170912Z 27002KT 16/15 A3002 RMK A01 T01630154  RH  095%=      5-min Rain = 0
KFR1 170913Z 27002KT 16/16 A3001 RMK A01 T01630155  RH  095%=      5-min Rain = 0
KFR1 170914Z 27002KT 16/16 A3001 RMK A01 T01630155  RH  095%=      5-min Rain = 0
KFR1 170915Z 27002KT 16/16 A3001 RMK A01 T01640156  RH  095%=      5-min Rain = 0
KFR1 170916Z 27002KT 16/16 A3001 RMK A01 T01640155  RH  095%=      5-min Rain = 0
KFR1 170917Z 26002KT 16/16 A3001 RMK A01 T01640155  RH  095%=      5-min Rain = 0
KFR1 170918Z 26002KT 16/16 A3001 RMK A01 T01640155  RH  095%=      5-min Rain = 0
KFR1 170919Z 26002KT 16/16 A3001 RMK A01 T01640155  RH  094%=      5-min Rain = 0
KFR1 170920Z 26002KT 16/15 A3001 RMK A01 T01630154  RH  094%=      5-min Rain = 0
KFR1 170921Z 27002KT 16/15 A3001 RMK A01 T01620153  RH  094%=      5-min Rain = 0
KFR1 170922Z 27002KT 16/15 A3001 RMK A01 T01620153  RH  094%=      5-min Rain = 0
KFR1 170923Z 26002KT 16/15 A3001 RMK A01 T01620154  RH  095%=      5-min Rain = 0
KFR1 170924Z 25002KT 16/15 A3001 RMK A01 T01620154  RH  095%=      5-min Rain = 0
KFR1 170925Z 25002KT 16/15 A3001 RMK A01 T01610152  RH  094%=      5-min Rain = 0
KFR1 170926Z 23002KT 16/15 A3001 RMK A01 T01600151  RH  094%=      5-min Rain = 0
KFR1 170927Z 23002KT 16/15 A3001 RMK A01 T01590150  RH  094%=      5-min Rain = 0
KFR1 170928Z 21001KT 16/15 A3001 RMK A01 T01570148  RH  094%=      5-min Rain = 0
KFR1 170929Z 19002KT 16/15 A3001 RMK A01 T01560147  RH  094%=      5-min Rain = 0
KFR1 170930Z 18001KT 16/15 A3001 RMK A01 T01560147  RH  094%=      5-min Rain = 0
KFR1 170931Z 17002KT 16/15 A3001 RMK A01 T01560147  RH  094%=      5-min Rain = 0
KFR1 170932Z 17002KT 16/15 A3001 RMK A01 T01560148  RH  095%=      5-min Rain = 0
KFR1 170933Z 17001KT 16/15 A3001 RMK A01 T01560148  RH  095%=      5-min Rain = 0
KFR1 170934Z 17001KT 16/15 A3001 RMK A01 T01560148  RH  095%=      5-min Rain = 0
KFR1 170935Z 17001KT 16/15 A3001 RMK A01 T01570150  RH  096%=      5-min Rain = 0
KFR1 170936Z 17000KT 16/15 A3001 RMK A01 T01580151  RH  096%=      5-min Rain = 0
KFR1 170937Z 00000KT 16/15 A3001 RMK A01 T01580152  RH  096%=      5-min Rain = 0
KFR1 170938Z 00000KT 16/15 A3001 RMK A01 T01590152  RH  096%=      5-min Rain = 0
KFR1 170939Z 00000KT 16/15 A3001 RMK A01 T01590152  RH  096%=      5-min Rain = 0
KFR1 170940Z 00000KT 16/15 A3001 RMK A01 T01600153  RH  096%=      5-min Rain = 0
KFR1 170941Z 17000KT 16/15 A3001 RMK A01 T01600154  RH  096%=      5-min Rain = 0
KFR1 170942Z 17001KT 16/15 A3001 RMK A01 T01610154  RH  096%=      5-min Rain = 0
KFR1 170943Z 19001KT 16/15 A3001 RMK A01 T01600154  RH  096%=      5-min Rain = 0
KFR1 170944Z 19001KT 16/15 A3001 RMK A01 T01600154  RH  096%=      5-min Rain = 0
KFR1 170945Z 20001KT 16/15 A3001 RMK A01 T01590153  RH  096%=      5-min Rain = 0
KFR1 170946Z 20001KT 16/15 A3001 RMK A01 T01590153  RH  096%=      5-min Rain = 0
KFR1 170947Z 21001KT 16/15 A3001 RMK A01 T01590152  RH  096%=      5-min Rain = 0
KFR1 170948Z 21001KT 16/15 A3001 RMK A01 T01580151  RH  096%=      5-min Rain = 0
KFR1 170949Z 22002KT 16/15 A3001 RMK A01 T01570150  RH  095%=      5-min Rain = 0
KFR1 170950Z 23001KT 16/15 A3001 RMK A01 T01570150  RH  096%=      5-min Rain = 0
KFR1 170951Z 27002KT 16/15 A3001 RMK A01 T01570151  RH  096%=      5-min Rain = 0
KFR1 170952Z 27002KT 16/15 A3001 RMK A01 T01580152  RH  096%=      5-min Rain = 0
KFR1 170953Z 27001KT 16/15 A3001 RMK A01 T01590152  RH  096%=      5-min Rain = 0
KFR1 170954Z 29000KT 16/15 A3001 RMK A01 T01590152  RH  096%=      5-min Rain = 0
KFR1 170955Z 00000KT 16/15 A3001 RMK A01 T01590152  RH  096%=      5-min Rain = 0
KFR1 170956Z 00000KT 16/15 A3001 RMK A01 T01590152  RH  096%=      5-min Rain = 0
KFR1 170957Z 00000KT 16/15 A3001 RMK A01 T01590152  RH  096%=      5-min Rain = 0
KFR1 170958Z 04000KT 16/15 A3001 RMK A01 T01570150  RH  096%=      5-min Rain = 0
KFR1 170959Z 02001KT 16/15 A3001 RMK A01 T01550147  RH  095%=      5-min Rain = 0
KFR1 171000Z 35002KT 16/15 A3001 RMK A01 T01550147  RH  095%=      5-min Rain = 0
KFR1 171001Z 33002KT 16/15 A3001 RMK A01 T01550148  RH  096%=      5-min Rain = 0
KFR1 171002Z 32002KT 16/15 A3001 RMK A01 T01550148  RH  096%=      5-min Rain = 0
KFR1 171003Z 32002KT 16/15 A3001 RMK A01 T01550148  RH  096%=      5-min Rain = 0
KFR1 171004Z 33001KT 16/15 A3001 RMK A01 T01550149  RH  096%=      5-min Rain = 0
KFR1 171005Z 00000KT 16/15 A3001 RMK A01 T01550149  RH  096%=      5-min Rain = 0
KFR1 171006Z 00000KT 16/15 A3001 RMK A01 T01550149  RH  096%=      5-min Rain = 0
KFR1 171007Z 00000KT 16/15 A3001 RMK A01 T01560150  RH  096%=      5-min Rain = 0
KFR1 171008Z 00000KT 16/15 A3001 RMK A01 T01570151  RH  096%=      5-min Rain = 0
KFR1 171009Z 00000KT 16/15 A3001 RMK A01 T01570151  RH  096%=      5-min Rain = 0
KFR1 171010Z 10000KT 16/15 A3001 RMK A01 T01570151  RH  096%=      5-min Rain = 0
KFR1 171011Z 10001KT 16/15 A3001 RMK A01 T01570151  RH  096%=      5-min Rain = 0
KFR1 171012Z 10001KT 16/15 A3001 RMK A01 T01570151  RH  096%=      5-min Rain = 0
KFR1 171013Z 10000KT 16/15 A3001 RMK A01 T01570152  RH  096%=      5-min Rain = 0
KFR1 171014Z 00000KT 16/15 A3001 RMK A01 T01580152  RH  096%=      5-min Rain = 0
KFR1 171015Z 00000KT 16/15 A3001 RMK A01 T01580153  RH  096%=      5-min Rain = 0
KFR1 171016Z 00000KT 16/15 A3001 RMK A01 T01580152  RH  096%=      5-min Rain = 0
KFR1 171017Z 00000KT 16/15 A3001 RMK A01 T01570151  RH  096%=      5-min Rain = 0
KFR1 171018Z 10000KT 16/15 A3001 RMK A01 T01550148  RH  096%=      5-min Rain = 0
KFR1 171019Z 10001KT 15/15 A3001 RMK A01 T01540148  RH  096%=      5-min Rain = 0
KFR1 171020Z 10001KT 15/15 A3001 RMK A01 T01540148  RH  096%=      5-min Rain = 0
KFR1 171021Z 08001KT 16/15 A3001 RMK A01 T01550149  RH  096%=      5-min Rain = 0
KFR1 171022Z 08002KT 16/15 A3001 RMK A01 T01560150  RH  096%=      5-min Rain = 0
KFR1 171023Z 05001KT 16/15 A3001 RMK A01 T01560150  RH  096%=      5-min Rain = 0
KFR1 171024Z 04001KT 16/15 A3001 RMK A01 T01550149  RH  096%=      5-min Rain = 0
KFR1 171025Z 03001KT 16/15 A3001 RMK A01 T01550148  RH  096%=      5-min Rain = 0
KFR1 171026Z 01001KT 15/15 A3001 RMK A01 T01540148  RH  096%=      5-min Rain = 0
KFR1 171027Z 01001KT 15/15 A3001 RMK A01 T01540148  RH  096%=      5-min Rain = 0
KFR1 171028Z 01000KT 15/15 A3001 RMK A01 T01540148  RH  096%=      5-min Rain = 0
KFR1 171029Z 01000KT 15/15 A3001 RMK A01 T01540148  RH  096%=      5-min Rain = 0
KFR1 171030Z 00000KT 15/15 A3001 RMK A01 T01540149  RH  097%=      5-min Rain = 0
KFR1 171031Z 09001KT 16/15 A3001 RMK A01 T01550150  RH  097%=      5-min Rain = 0
KFR1 171032Z 09002KT 16/15 A3001 RMK A01 T01560151  RH  097%=      5-min Rain = 0
KFR1 171033Z 10003KT 16/15 A3001 RMK A01 T01560150  RH  097%=      5-min Rain = 0
KFR1 171034Z 10003KT 16/15 A3001 RMK A01 T01550150  RH  097%=      5-min Rain = 0
KFR1 171035Z 11004KT 16/15 A3001 RMK A01 T01550150  RH  097%=      5-min Rain = 0
KFR1 171036Z 11004KT 15/15 A3001 RMK A01 T01540149  RH  096%=      5-min Rain = 0
KFR1 171037Z 12004KT 15/15 A30 RMK A01 T01540148  RH  096%=      5-min Rain = 0
KFR1 171038Z 12004KT 15/15 A30 RMK A01 T01540149  RH  097%=      5-min Rain = 0
KFR1 171039Z 13003KT 16/15 A30 RMK A01 T01550150  RH  097%=      5-min Rain = 0
KFR1 171040Z 13003KT 16/15 A30 RMK A01 T01550150  RH  097%=      5-min Rain = 0
KFR1 171041Z 13004KT 16/15 A30 RMK A01 T01550149  RH  096%=      5-min Rain = 0
KFR1 171042Z 14004KT 15/15 A30 RMK A01 T01540148  RH  096%=      5-min Rain = 0
KFR1 171043Z 13004KT 15/15 A30 RMK A01 T01540148  RH  096%=      5-min Rain = 0
KFR1 171044Z 14005KT 16/15 A30 RMK A01 T01550149  RH  096%=      5-min Rain = 0
KFR1 171045Z 13005KT 16/15 A30 RMK A01 T01560150  RH  096%=      5-min Rain = 0
KFR1 171046Z 13005KT 16/15 A30 RMK A01 T01570152  RH  096%=      5-min Rain = 0
KFR1 171047Z 13006KT 16/15 A30 RMK A01 T01580152  RH  096%=      5-min Rain = 0
KFR1 171048Z 13006KT 16/15 A30 RMK A01 T01580151  RH  096%=      5-min Rain = 0
KFR1 171049Z 13006KT 16/15 A30 RMK A01 T01580151  RH  095%=      5-min Rain = 0
KFR1 171050Z 13005KT 16/15 A30 RMK A01 T01590151  RH  095%=      5-min Rain = 0
KFR1 171051Z 15005KT 16/15 A30 RMK A01 T01590150  RH  094%=      5-min Rain = 0
KFR1 171052Z 16004KT 16/15 A30 RMK A01 T01590150  RH  094%=      5-min Rain = 0
KFR1 171053Z 16004KT 16/15 A30 RMK A01 T01580147  RH  093%=      5-min Rain = 0
KFR1 171054Z 17003KT 16/14 A30 RMK A01 T01560144  RH  092%=      5-min Rain = 0
KFR1 171055Z 20003KT 15/14 A30 RMK A01 T01540142  RH  092%=      5-min Rain = 0
KFR1 171056Z 23003KT 15/14 A30 RMK A01 T01520141  RH  093%=      5-min Rain = 0
KFR1 171057Z 24004KT 15/14 A30 RMK A01 T01510140  RH  093%=      5-min Rain = 0
KFR1 171058Z 25005KT 15/14 A30 RMK A01 T01510141  RH  094%=      5-min Rain = 0
KFR1 171059Z 24005KT 15/14 A3001 RMK A01 T01490140  RH  094%=      5-min Rain = 0
KFR1 171100Z 24005KT 15/14 A3001 RMK A01 T01470137  RH  094%=      5-min Rain = 0
KFR1 171101Z 24004KT 15/14 A3001 RMK A01 T01470138  RH  094%=      5-min Rain = 0
KFR1 171102Z 24003KT 15/14 A3001 RMK A01 T01460138  RH  095%=      5-min Rain = 0
KFR1 171103Z 23003KT 15/14 A3001 RMK A01 T01460138  RH  095%=      5-min Rain = 0
KFR1 171104Z 24003KT 15/14 A3001 RMK A01 T01460139  RH  095%=      5-min Rain = 0
KFR1 171105Z 23003KT 15/14 A3001 RMK A01 T01470140  RH  095%=      5-min Rain = 0
KFR1 171106Z 21003KT 15/14 A3001 RMK A01 T01460139  RH  096%=      5-min Rain = 0
KFR1 171107Z 20003KT 15/14 A3001 RMK A01 T01460139  RH  096%=      5-min Rain = 0
KFR1 171108Z 20003KT 15/14 A3001 RMK A01 T01460139  RH  096%=      5-min Rain = 0
KFR1 171109Z 18004KT 15/14 A3001 RMK A01 T01470139  RH  095%=      5-min Rain = 0
KFR1 171110Z 17004KT 15/14 A3001 RMK A01 T01460139  RH  095%=      5-min Rain = 0
KFR1 171111Z 18004KT 15/14 A3001 RMK A01 T01450138  RH  095%=      5-min Rain = 0
KFR1 171112Z 18004KT 14/14 A3001 RMK A01 T01440137  RH  095%=      5-min Rain = 0
KFR1 171113Z 18004KT 14/14 A3001 RMK A01 T01440136  RH  095%=      5-min Rain = 0
KFR1 171114Z 19005KT 14/14 A3001 RMK A01 T01430135  RH  095%=      5-min Rain = 0
KFR1 171115Z 19005KT 14/14 A3001 RMK A01 T01430135  RH  095%=      5-min Rain = 0
KFR1 171116Z 19006KT 14/14 A3001 RMK A01 T01430135  RH  095%=      5-min Rain = 0
KFR1 171117Z 19006KT 14/14 A30 RMK A01 T01430135  RH  095%=      5-min Rain = 0
KFR1 171118Z 18006KT 14/14 A30 RMK A01 T01430136  RH  095%=      5-min Rain = 0
KFR1 171119Z 17006KT 14/14 A30 RMK A01 T01430136  RH  095%=      5-min Rain = 0
KFR1 171120Z 16006KT 14/14 A30 RMK A01 T01440137  RH  095%=      5-min Rain = 0
KFR1 171121Z 16007KT 14/14 A2999 RMK A01 T01440137  RH  095%=      5-min Rain = 0
KFR1 171122Z 15005KT 14/14 A2999 RMK A01 T01440137  RH  096%=      5-min Rain = 0
KFR1 171123Z 16006KT 15/14 A2999 RMK A01 T01450138  RH  096%=      5-min Rain = 0
KFR1 171124Z 16007KT 15/14 A2999 RMK A01 T01450138  RH  096%=      5-min Rain = 0
KFR1 171125Z 17006KT 15/14 A2999 RMK A01 T01460139  RH  096%=      5-min Rain = 0
KFR1 171126Z 17006KT 15/14 A30 RMK A01 T01460139  RH  095%=      5-min Rain = 0
KFR1 171127Z 19005KT 15/14 A30 RMK A01 T01470139  RH  095%=      5-min Rain = 0
KFR1 171128Z 20005KT 15/14 A30 RMK A01 T01470140  RH  095%=      5-min Rain = 0
KFR1 171129Z 22005KT 15/14 A30 RMK A01 T01480139  RH  095%=      5-min Rain = 0
KFR1 171130Z 23005KT 15/14 A3001 RMK A01 T01480139  RH  094%=      5-min Rain = 0
KFR1 171131Z 23006KT 15/14 A3001 RMK A01 T01480139  RH  094%=      5-min Rain = 0
KFR1 171132Z 24006KT 15/14 A3001 RMK A01 T01480139  RH  094%=      5-min Rain = 0
KFR1 171133Z 25007KT 15/14 A3001 RMK A01 T01480139  RH  094%=      5-min Rain = 0
KFR1 171134Z 26007KT 15/14 A3002 RMK A01 T01490140  RH  095%=      5-min Rain = 0
KFR1 171135Z 27006KT 15/14 A3002 RMK A01 T01490140  RH  094%=      5-min Rain = 0
KFR1 171136Z 26005KT 15/14 A3002 RMK A01 T01490141  RH  095%=      5-min Rain = 0
KFR1 171137Z 26005KT 15/14 A3002 RMK A01 T01490142  RH  095%=      5-min Rain = 0
KFR1 171138Z 26005KT 15/14 A3002 RMK A01 T01500143  RH  095%=      5-min Rain = 0
KFR1 171139Z 24004KT 15/14 A3002 RMK A01 T01510144  RH  096%=      5-min Rain = 0
KFR1 171140Z 23004KT 15/15 A3002 RMK A01 T01510145  RH  096%=      5-min Rain = 0
KFR1 171141Z 22003KT 15/15 A3001 RMK A01 T01510145  RH  096%=      5-min Rain = 0
KFR1 171142Z 21004KT 15/15 A3001 RMK A01 T01510145  RH  096%=      5-min Rain = 0
KFR1 171143Z 21004KT 15/15 A3001 RMK A01 T01510145  RH  096%=      5-min Rain = 0
KFR1 171144Z 20004KT 15/15 A3001 RMK A01 T01520145  RH  096%=      5-min Rain = 0
KFR1 171145Z 21004KT 15/15 A3001 RMK A01 T01520145  RH  096%=      5-min Rain = 0
KFR1 171146Z 22004KT 15/15 A3001 RMK A01 T01520145  RH  096%=      5-min Rain = 0
KFR1 171147Z 22004KT 15/15 A3001 RMK A01 T01520145  RH  095%=      5-min Rain = 0
KFR1 171148Z 23004KT 15/15 A3001 RMK A01 T01530145  RH  095%=      5-min Rain = 0
KFR1 171149Z 24004KT 15/15 A3001 RMK A01 T01530145  RH  095%=      5-min Rain = 0
KFR1 171150Z 27004KT 15/14 A3002 RMK A01 T01530144  RH  095%=      5-min Rain = 0
KFR1 171151Z 25004KT 15/15 A3002 RMK A01 T01530145  RH  095%=      5-min Rain = 0
KFR1 171152Z 23003KT 15/15 A3002 RMK A01 T01530145  RH  095%=      5-min Rain = 0
KFR1 171153Z 21003KT 15/14 A3002 RMK A01 T01520144  RH  095%=      5-min Rain = 0
KFR1 171154Z 20003KT 15/14 A3002 RMK A01 T01520144  RH  095%=      5-min Rain = 0
KFR1 171155Z 20003KT 15/14 A3002 RMK A01 T01520144  RH  095%=      5-min Rain = 0
KFR1 171156Z 20003KT 15/14 A3002 RMK A01 T01520144  RH  095%=      5-min Rain = 0
KFR1 171157Z 21003KT 15/14 A3002 RMK A01 T01520144  RH  095%=      5-min Rain = 0
KFR1 171158Z 22003KT 15/14 A3002 RMK A01 T01530144  RH  095%=      5-min Rain = 0
KFR1 171159Z 24004KT 15/14 A3002 RMK A01 T01530144  RH  095%=      5-min Rain = 0
KFR1 171200Z 25005KT 15/15 A3002 RMK A01 T01530145  RH  095%=      5-min Rain = 0
KFR1 171201Z 26006KT 15/14 A3002 RMK A01 T01530144  RH  094%=      5-min Rain = 0
KFR1 171202Z 27005KT 15/14 A3003 RMK A01 T01530144  RH  094%=      5-min Rain = 0
KFR1 171203Z 27005KT 15/14 A3003 RMK A01 T01530144  RH  094%=      5-min Rain = 0
KFR1 171204Z 25005KT 15/14 A3003 RMK A01 T01530144  RH  094%=      5-min Rain = 0
KFR1 171205Z 25004KT 15/14 A3003 RMK A01 T01520144  RH  095%=      5-min Rain = 0
KFR1 171206Z 24004KT 15/14 A3003 RMK A01 T01520144  RH  095%=      5-min Rain = 0
KFR1 171207Z 23005KT 15/14 A3002 RMK A01 T01520144  RH  095%=      5-min Rain = 0
KFR1 171208Z 23004KT 15/14 A3003 RMK A01 T01520144  RH  095%=      5-min Rain = 0
KFR1 171209Z 23005KT 15/15 A3003 RMK A01 T01520145  RH  095%=      5-min Rain = 0
KFR1 171210Z 23006KT 15/15 A3003 RMK A01 T01530145  RH  095%=      5-min Rain = 0
KFR1 171211Z 23004KT 15/15 A3003 RMK A01 T01530145  RH  095%=      5-min Rain = 0
KFR1 171212Z 24004KT 15/15 A3003 RMK A01 T01540146  RH  095%=      5-min Rain = 0
KFR1 171213Z 24003KT 15/15 A3003 RMK A01 T01540146  RH  095%=      5-min Rain = 0
KFR1 171214Z 25003KT 15/15 A3003 RMK A01 T01540146  RH  095%=      5-min Rain = 0
KFR1 171215Z 26005KT 15/15 A3003 RMK A01 T01540146  RH  095%=      5-min Rain = 0
KFR1 171216Z 26005KT 15/15 A3003 RMK A01 T01540146  RH  095%=      5-min Rain = 0
KFR1 171217Z 25005KT 15/15 A3003 RMK A01 T01540146  RH  095%=      5-min Rain = 0
KFR1 171218Z 26005KT 15/15 A3003 RMK A01 T01540146  RH  095%=      5-min Rain = 0
KFR1 171219Z 25004KT 15/15 A3004 RMK A01 T01540146  RH  095%=      5-min Rain = 0
KFR1 171220Z 25004KT 16/15 A3003 RMK A01 T01550147  RH  095%=      5-min Rain = 0
KFR1 171221Z 25004KT 16/15 A3003 RMK A01 T01550147  RH  095%=      5-min Rain = 0
KFR1 171222Z 25005KT 16/15 A3004 RMK A01 T01550148  RH  095%=      5-min Rain = 0
KFR1 171223Z 26005KT 16/15 A3004 RMK A01 T01560148  RH  095%=      5-min Rain = 0
KFR1 171224Z 25005KT 16/15 A3004 RMK A01 T01560149  RH  095%=      5-min Rain = 0
KFR1 171225Z 25005KT 16/15 A3004 RMK A01 T01560149  RH  095%=      5-min Rain = 0
KFR1 171226Z 26005KT 16/15 A3004 RMK A01 T01570149  RH  095%=      5-min Rain = 0
KFR1 171227Z 25005KT 16/15 A3004 RMK A01 T01560149  RH  095%=      5-min Rain = 0
KFR1 171228Z 25005KT 16/15 A3004 RMK A01 T01570149  RH  095%=      5-min Rain = 0
KFR1 171229Z 25005KT 16/15 A3004 RMK A01 T01570150  RH  095%=      5-min Rain = 0
KFR1 171230Z 26006KT 16/15 A3004 RMK A01 T01570149  RH  095%=      5-min Rain = 0
KFR1 171231Z 25006KT 16/15 A3004 RMK A01 T01570149  RH  095%=      5-min Rain = 0
KFR1 171232Z 26005KT 16/15 A3004 RMK A01 T01570149  RH  095%=      5-min Rain = 0
KFR1 171233Z 25005KT 16/15 A3004 RMK A01 T01570149  RH  095%=      5-min Rain = 0
KFR1 171234Z 25005KT 16/15 A3004 RMK A01 T01570149  RH  095%=      5-min Rain = 0
KFR1 171235Z 25005KT 16/15 A3004 RMK A01 T01570149  RH  095%=      5-min Rain = 0
KFR1 171236Z 25006KT 16/15 A3004 RMK A01 T01570149  RH  095%=      5-min Rain = 0
KFR1 171237Z 24004KT 16/15 A3004 RMK A01 T01570149  RH  095%=      5-min Rain = 0
KFR1 171238Z 23005KT 16/15 A3004 RMK A01 T01570149  RH  095%=      5-min Rain = 0
KFR1 171239Z 23003KT 16/15 A3004 RMK A01 T01570148  RH  095%=      5-min Rain = 0
KFR1 171240Z 24003KT 16/15 A3004 RMK A01 T01570148  RH  094%=      5-min Rain = 0
KFR1 171241Z 23003KT 16/15 A3004 RMK A01 T01570148  RH  094%=      5-min Rain = 0
KFR1 171242Z 23003KT 16/15 A3004 RMK A01 T01580149  RH  094%=      5-min Rain = 0
KFR1 171243Z 24003KT 16/15 A3004 RMK A01 T01580149  RH  094%=      5-min Rain = 0
KFR1 171244Z 25003KT 16/15 A3004 RMK A01 T01590149  RH  094%=      5-min Rain = 0
KFR1 171245Z 24003KT 16/15 A3004 RMK A01 T01590149  RH  094%=      5-min Rain = 0
KFR1 171246Z 24004KT 16/15 A3004 RMK A01 T01600150  RH  094%=      5-min Rain = 0
KFR1 171247Z 23003KT 16/15 A3004 RMK A01 T01600149  RH  093%=      5-min Rain = 0
KFR1 171248Z 23004KT 16/15 A3004 RMK A01 T01610151  RH  093%=      5-min Rain = 0
KFR1 171249Z 22004KT 16/15 A3004 RMK A01 T01610150  RH  093%=      5-min Rain = 0
KFR1 171250Z 22003KT 16/15 A3005 RMK A01 T01610149  RH  093%=      5-min Rain = 0
KFR1 171251Z 22004KT 16/15 A3005 RMK A01 T01620150  RH  093%=      5-min Rain = 0
KFR1 171252Z 22004KT 16/15 A3005 RMK A01 T01620150  RH  092%=      5-min Rain = 0
KFR1 171253Z 21004KT 16/15 A3005 RMK A01 T01620149  RH  092%=      5-min Rain = 0
KFR1 171254Z 21003KT 16/15 A3005 RMK A01 T01630150  RH  092%=      5-min Rain = 0
KFR1 171255Z 21003KT 16/15 A3005 RMK A01 T01630151  RH  092%=      5-min Rain = 0
KFR1 171256Z 21003KT 16/15 A3005 RMK A01 T01630150  RH  092%=      5-min Rain = 0
KFR1 171257Z 21003KT 16/15 A3005 RMK A01 T01640151  RH  092%=      5-min Rain = 0
KFR1 171258Z 21004KT 16/15 A3005 RMK A01 T01640150  RH  092%=      5-min Rain = 0
KFR1 171259Z 21004KT 16/15 A3005 RMK A01 T01640151  RH  092%=      5-min Rain = 0
KFR1 171300Z 21004KT 16/15 A3005 RMK A01 T01640151  RH  092%=      5-min Rain = 0
KFR1 171301Z 22005KT 17/15 A3005 RMK A01 T01650152  RH  092%=      5-min Rain = 0
KFR1 171302Z 21005KT 17/15 A3005 RMK A01 T01660153  RH  092%=      5-min Rain = 0
KFR1 171303Z 21004KT 17/15 A3005 RMK A01 T01660152  RH  091%=      5-min Rain = 0
KFR1 171304Z 22004KT 17/15 A3005 RMK A01 T01670153  RH  091%=      5-min Rain = 0
KFR1 171305Z 22005KT 17/15 A3005 RMK A01 T01670152  RH  091%=      5-min Rain = 0
KFR1 171306Z 22005KT 17/15 A3005 RMK A01 T01670153  RH  091%=      5-min Rain = 0
KFR1 171307Z 22005KT 17/15 A3005 RMK A01 T01670152  RH  091%=      5-min Rain = 0
KFR1 171308Z 22005KT 17/15 A3005 RMK A01 T01670153  RH  091%=      5-min Rain = 0
KFR1 171309Z 22005KT 17/15 A3005 RMK A01 T01670153  RH  091%=      5-min Rain = 0
KFR1 171310Z 21004KT 17/15 A3005 RMK A01 T01670153  RH  091%=      5-min Rain = 0
KFR1 171311Z 22005KT 17/15 A3005 RMK A01 T01680154  RH  091%=      5-min Rain = 0
KFR1 171312Z 21005KT 17/15 A3005 RMK A01 T01680153  RH  091%=      5-min Rain = 0
KFR1 171313Z 21004KT 17/15 A3005 RMK A01 T01680153  RH  091%=      5-min Rain = 0
KFR1 171314Z 20004KT 17/15 A3005 RMK A01 T01680154  RH  091%=      5-min Rain = 0
KFR1 171315Z 20004KT 17/16 A3005 RMK A01 T01690155  RH  091%=      5-min Rain = 0
KFR1 171316Z 20005KT 17/16 A3005 RMK A01 T01690155  RH  091%=      5-min Rain = 0
KFR1 171317Z 20005KT 17/16 A3005 RMK A01 T01690155  RH  092%=      5-min Rain = 0
KFR1 171318Z 20005KT 17/16 A3005 RMK A01 T01690155  RH  092%=      5-min Rain = 0
KFR1 171319Z 20004KT 17/16 A3005 RMK A01 T01690155  RH  092%=      5-min Rain = 0
KFR1 171320Z 21004KT 17/16 A3005 RMK A01 T01690155  RH  092%=      5-min Rain = 0
KFR1 171321Z 21004KT 17/16 A3005 RMK A01 T01690155  RH  092%=      5-min Rain = 0
KFR1 171322Z 21004KT 17/16 A3005 RMK A01 T01700155  RH  091%=      5-min Rain = 0
KFR1 171323Z 22005KT 17/16 A3005 RMK A01 T01710156  RH  091%=      5-min Rain = 0
KFR1 171324Z 22004KT 17/16 A3005 RMK A01 T01710157  RH  091%=      5-min Rain = 0
KFR1 171325Z 23005KT 17/16 A3005 RMK A01 T01720157  RH  091%=      5-min Rain = 0
KFR1 171326Z 23005KT 17/16 A3005 RMK A01 T01730157  RH  090%=      5-min Rain = 0
KFR1 171327Z 22005KT 17/16 A3005 RMK A01 T01730157  RH  090%=      5-min Rain = 0
KFR1 171328Z 22005KT 17/16 A3005 RMK A01 T01730157  RH  090%=      5-min Rain = 0
KFR1 171329Z 22004KT 17/16 A3005 RMK A01 T01730157  RH  090%=      5-min Rain = 0
KFR1 171330Z 22003KT 17/16 A3005 RMK A01 T01730157  RH  090%=      5-min Rain = 0
KFR1 171331Z 24003KT 17/16 A3005 RMK A01 T01730157  RH  090%=      5-min Rain = 0
KFR1 171332Z 24003KT 17/16 A3005 RMK A01 T01740158  RH  091%=      5-min Rain = 0
KFR1 171333Z 23005KT 17/16 A3005 RMK A01 T01740158  RH  090%=      5-min Rain = 0
KFR1 171334Z 25003KT 17/16 A3006 RMK A01 T01740158  RH  090%=      5-min Rain = 0
KFR1 171335Z 25003KT 17/16 A3006 RMK A01 T01740159  RH  091%=      5-min Rain = 0
KFR1 171336Z 26003KT 17/16 A3006 RMK A01 T01740159  RH  091%=      5-min Rain = 0
KFR1 171337Z 25003KT 17/16 A3006 RMK A01 T01740159  RH  091%=      5-min Rain = 0
KFR1 171338Z 25002KT 17/16 A3006 RMK A01 T01740159  RH  091%=      5-min Rain = 0
KFR1 171339Z 26002KT 17/16 A3006 RMK A01 T01740159  RH  091%=      5-min Rain = 0
KFR1 171340Z 26002KT 17/16 A3006 RMK A01 T01740159  RH  091%=      5-min Rain = 0
KFR1 171341Z 25002KT 17/16 A3006 RMK A01 T01740158  RH  090%=      5-min Rain = 0
KFR1 171342Z 26001KT 17/16 A3006 RMK A01 T01740158  RH  090%=      5-min Rain = 0
KFR1 171343Z 25002KT 17/16 A3006 RMK A01 T01740158  RH  090%=      5-min Rain = 0
KFR1 171344Z 25003KT 17/16 A3006 RMK A01 T01740158  RH  090%=      5-min Rain = 0
KFR1 171345Z 25002KT 17/16 A3006 RMK A01 T01740157  RH  090%=      5-min Rain = 0
KFR1 171346Z 26003KT 17/16 A3006 RMK A01 T01740157  RH  090%=      5-min Rain = 0
KFR1 171347Z 26003KT 17/16 A3006 RMK A01 T01740155  RH  089%=      5-min Rain = 0
KFR1 171348Z 25003KT 17/16 A3006 RMK A01 T01740155  RH  089%=      5-min Rain = 0
KFR1 171349Z 25002KT 17/16 A3006 RMK A01 T01740156  RH  089%=      5-min Rain = 0
KFR1 171350Z 24001KT 17/16 A3006 RMK A01 T01740157  RH  090%=      5-min Rain = 0
KFR1 171351Z 24002KT 17/16 A3006 RMK A01 T01740158  RH  090%=      5-min Rain = 0
KFR1 171352Z 24002KT 18/16 A3006 RMK A01 T01750158  RH  090%=      5-min Rain = 0
KFR1 171353Z 23002KT 18/16 A3006 RMK A01 T01770160  RH  090%=      5-min Rain = 0
KFR1 171354Z 22001KT 18/16 A3006 RMK A01 T01780160  RH  089%=      5-min Rain = 0
KFR1 171355Z 23002KT 18/16 A3006 RMK A01 T01790160  RH  089%=      5-min Rain = 0
KFR1 171356Z 20001KT 18/16 A3006 RMK A01 T01810161  RH  088%=      5-min Rain = 0
KFR1 171357Z 19003KT 18/16 A3006 RMK A01 T01820161  RH  088%=      5-min Rain = 0
KFR1 171358Z 21003KT 18/16 A3006 RMK A01 T01820160  RH  087%=      5-min Rain = 0
KFR1 171359Z 20002KT 18/16 A3006 RMK A01 T01830159  RH  086%=      5-min Rain = 0
KFR1 171400Z 22002KT 18/16 A3006 RMK A01 T01840162  RH  087%=      5-min Rain = 0
KFR1 171401Z 21001KT 19/16 A3005 RMK A01 T01850162  RH  086%=      5-min Rain = 0
KFR1 171402Z 24001KT 19/16 A3005 RMK A01 T01870164  RH  087%=      5-min Rain = 0
KFR1 171403Z 21002KT 19/16 A3005 RMK A01 T01880164  RH  086%=      5-min Rain = 0
KFR1 171404Z 20003KT 19/17 A3005 RMK A01 T01890165  RH  086%=      5-min Rain = 0
KFR1 171405Z 21003KT 19/17 A3005 RMK A01 T01900165  RH  085%=      5-min Rain = 0
KFR1 171406Z 20003KT 19/16 A3005 RMK A01 T01900163  RH  084%=      5-min Rain = 0
KFR1 171407Z 23004KT 19/17 A3006 RMK A01 T01920166  RH  085%=      5-min Rain = 0
KFR1 171408Z 24004KT 19/17 A3006 RMK A01 T01930165  RH  084%=      5-min Rain = 0
KFR1 171409Z 24003KT 19/17 A3006 RMK A01 T01930166  RH  084%=      5-min Rain = 0
KFR1 171410Z 22003KT 19/17 A3006 RMK A01 T01940169  RH  085%=      5-min Rain = 0
KFR1 171411Z 23004KT 20/17 A3006 RMK A01 T01950167  RH  084%=      5-min Rain = 0
KFR1 171412Z 24003KT 20/17 A3006 RMK A01 T01950167  RH  084%=      5-min Rain = 0
KFR1 171413Z 24003KT 20/17 A3006 RMK A01 T01950168  RH  084%=      5-min Rain = 0
KFR1 171414Z 23004KT 20/17 A3006 RMK A01 T01970169  RH  084%=      5-min Rain = 0
KFR1 171415Z 23004KT 20/17 A3006 RMK A01 T01970167  RH  083%=      5-min Rain = 0
KFR1 171416Z 23003KT 20/17 A3006 RMK A01 T01970167  RH  083%=      5-min Rain = 0
KFR1 171417Z 24006KT 20/17 A3006 RMK A01 T01970167  RH  083%=      5-min Rain = 0
KFR1 171418Z 23007KT 20/17 A3006 RMK A01 T01970167  RH  083%=      5-min Rain = 0
KFR1 171419Z 23007KT 20/17 A3006 RMK A01 T01980167  RH  082%=      5-min Rain = 0
KFR1 171420Z 22006KT 20/17 A3006 RMK A01 T01980165  RH  081%=      5-min Rain = 0
KFR1 171421Z 23007KT 20/17 A3006 RMK A01 T01970165  RH  082%=      5-min Rain = 0
KFR1 171422Z 23007KT 20/17 A3006 RMK A01 T01970166  RH  082%=      5-min Rain = 0
KFR1 171423Z 24005KT 20/17 A3006 RMK A01 T01970166  RH  082%=      5-min Rain = 0
KFR1 171424Z 25005KT 20/17 A3006 RMK A01 T01970166  RH  082%=      5-min Rain = 0
KFR1 171425Z 25004KT 20/17 A3006 RMK A01 T01980167  RH  082%=      5-min Rain = 0
KFR1 171426Z 23005KT 20/17 A3006 RMK A01 T01980167  RH  082%=      5-min Rain = 0
KFR1 171427Z 23005KT 20/17 A3006 RMK A01 T02000168  RH  082%=      5-min Rain = 0
KFR1 171428Z 23005KT 20/17 A3006 RMK A01 T02010168  RH  081%=      5-min Rain = 0
KFR1 171429Z 23004KT 20/17 A3006 RMK A01 T02010167  RH  081%=      5-min Rain = 0
KFR1 171430Z 24004KT 20/17 A3006 RMK A01 T02010168  RH  081%=      5-min Rain = 0
KFR1 171431Z 24004KT 20/17 A3006 RMK A01 T02020169  RH  081%=      5-min Rain = 0
KFR1 171432Z 21004KT 20/17 A3006 RMK A01 T02030169  RH  081%=      5-min Rain = 0
KFR1 171433Z 21004KT 20/17 A3006 RMK A01 T02040170  RH  081%=      5-min Rain = 0
KFR1 171434Z 20007KT 21/17 A3006 RMK A01 T02050169  RH  080%=      5-min Rain = 0
KFR1 171435Z 21007KT 21/17 A3006 RMK A01 T02050169  RH  079%=      5-min Rain = 0
KFR1 171436Z 21004KT 21/17 A3006 RMK A01 T02050169  RH  080%=      5-min Rain = 0
KFR1 171437Z 22006KT 21/17 A3006 RMK A01 T02060170  RH  080%=      5-min Rain = 0
KFR1 171438Z 22004KT 21/17 A3006 RMK A01 T02060170  RH  080%=      5-min Rain = 0
KFR1 171439Z 21005KT 21/17 A3006 RMK A01 T02080173  RH  080%=      5-min Rain = 0
KFR1 171440Z 22005KT 21/17 A3006 RMK A01 T02090170  RH  078%=      5-min Rain = 0
KFR1 171441Z 23005KT 21/17 A3006 RMK A01 T02090170  RH  079%=      5-min Rain = 0
KFR1 171442Z 25005KT 21/17 A3006 RMK A01 T02090173  RH  080%=      5-min Rain = 0
KFR1 171443Z 24007KT 21/17 A3006 RMK A01 T02100172  RH  079%=      5-min Rain = 0
KFR1 171444Z 23006KT 21/17 A3006 RMK A01 T02100171  RH  079%=      5-min Rain = 0
KFR1 171445Z 25005KT 21/17 A3006 RMK A01 T02090172  RH  079%=      5-min Rain = 0
KFR1 171446Z 27005KT 21/17 A3006 RMK A01 T02090171  RH  079%=      5-min Rain = 0
KFR1 171447Z 27005KT 21/17 A3006 RMK A01 T02080171  RH  079%=      5-min Rain = 0
KFR1 171448Z 27006KT 21/17 A3006 RMK A01 T02070171  RH  080%=      5-min Rain = 0
KFR1 171449Z 28006KT 21/17 A3006 RMK A01 T02060172  RH  081%=      5-min Rain = 0
KFR1 171450Z 28006KT 21/17 A3006 RMK A01 T02060172  RH  081%=      5-min Rain = 0
KFR1 171451Z 28007KT 21/17 A3006 RMK A01 T02060173  RH  081%=      5-min Rain = 0
KFR1 171452Z 28006KT 21/17 A3007 RMK A01 T02070173  RH  081%=      5-min Rain = 0
KFR1 171453Z 27005KT 21/17 A3007 RMK A01 T02070173  RH  081%=      5-min Rain = 0
KFR1 171454Z 28004KT 21/17 A3007 RMK A01 T02060174  RH  082%=      5-min Rain = 0
KFR1 171455Z 28006KT 21/17 A3007 RMK A01 T02070174  RH  081%=      5-min Rain = 0
KFR1 171456Z 27005KT 21/17 A3007 RMK A01 T02070173  RH  081%=      5-min Rain = 0
KFR1 171457Z 27004KT 21/18 A3007 RMK A01 T02080175  RH  081%=      5-min Rain = 0
KFR1 171458Z 26006KT 21/18 A3007 RMK A01 T02100175  RH  080%=      5-min Rain = 0
KFR1 171459Z 26006KT 21/17 A3007 RMK A01 T02100173  RH  079%=      5-min Rain = 0
KFR1 171500Z 25005KT 21/17 A3006 RMK A01 T02100173  RH  079%=      5-min Rain = 0
KFR1 171501Z 24005KT 21/17 A3006 RMK A01 T02110174  RH  080%=      5-min Rain = 0
KFR1 171502Z 25004KT 21/18 A3006 RMK A01 T02110175  RH  080%=      5-min Rain = 0
KFR1 171503Z 26003KT 21/18 A3007 RMK A01 T02120179  RH  081%=      5-min Rain = 0
KFR1 171504Z 27003KT 21/18 A3007 RMK A01 T02140176  RH  079%=      5-min Rain = 0
KFR1 171505Z 27004KT 21/18 A3007 RMK A01 T02140176  RH  079%=      5-min Rain = 0
KFR1 171506Z 28004KT 22/18 A3007 RMK A01 T02150179  RH  080%=      5-min Rain = 0
KFR1 171507Z 27003KT 22/18 A3007 RMK A01 T02180181  RH  080%=      5-min Rain = 0
KFR1 171508Z 28005KT 22/18 A3007 RMK A01 T02190179  RH  078%=      5-min Rain = 0
KFR1 171509Z 27004KT 22/18 A3007 RMK A01 T02190178  RH  077%=      5-min Rain = 0
KFR1 171510Z 27004KT 22/18 A3007 RMK A01 T02180178  RH  078%=      5-min Rain = 0
KFR1 171511Z 26004KT 22/18 A3007 RMK A01 T02180178  RH  078%=      5-min Rain = 0
KFR1 171512Z 25007KT 22/18 A3007 RMK A01 T02180178  RH  078%=      5-min Rain = 0
KFR1 171513Z 26005KT 22/18 A3007 RMK A01 T02170177  RH  078%=      5-min Rain = 0
KFR1 171514Z 27005KT 22/18 A3007 RMK A01 T02160178  RH  079%=      5-min Rain = 0
KFR1 171515Z 24005KT 22/18 A3007 RMK A01 T02160178  RH  079%=      5-min Rain = 0
KFR1 171516Z 25004KT 22/18 A3007 RMK A01 T02160176  RH  078%=      5-min Rain = 0
KFR1 171517Z 26005KT 22/18 A3007 RMK A01 T02180183  RH  080%=      5-min Rain = 0
KFR1 171518Z 25005KT 22/18 A3007 RMK A01 T02210182  RH  079%=      5-min Rain = 0
KFR1 171519Z 24006KT 22/18 A3007 RMK A01 T02220177  RH  076%=      5-min Rain = 0
KFR1 171520Z 25006KT 22/18 A3007 RMK A01 T02200177  RH  076%=      5-min Rain = 0
KFR1 171521Z 25005KT 22/18 A3007 RMK A01 T02200181  RH  078%=      5-min Rain = 0
KFR1 171522Z 25005KT 22/18 A3007 RMK A01 T02220180  RH  077%=      5-min Rain = 0
KFR1 171523Z 25005KT 22/18 A3007 RMK A01 T02220180  RH  077%=      5-min Rain = 0
KFR1 171524Z 26003KT 22/18 A3007 RMK A01 T02230181  RH  077%=      5-min Rain = 0
KFR1 171525Z 25003KT 22/18 A3007 RMK A01 T02230183  RH  078%=      5-min Rain = 0
KFR1 171526Z 27004KT 22/18 A3007 RMK A01 T02240183  RH  077%=      5-min Rain = 0
KFR1 171527Z 22005KT 23/18 A3007 RMK A01 T02250180  RH  076%=      5-min Rain = 0
KFR1 171528Z 23006KT 22/18 A3007 RMK A01 T02240181  RH  076%=      5-min Rain = 0
KFR1 171529Z 21006KT 23/18 A3007 RMK A01 T02260175  RH  073%=      5-min Rain = 0
KFR1 171530Z 21003KT 23/17 A3007 RMK A01 T02260168  RH  070%=      5-min Rain = 0
KFR1 171531Z 24003KT 23/17 A3007 RMK A01 T02250174  RH  073%=      5-min Rain = 0
KFR1 171532Z 25003KT 23/18 A3007 RMK A01 T02250177  RH  074%=      5-min Rain = 0
KFR1 171533Z 22006KT 23/18 A3007 RMK A01 T02250179  RH  075%=      5-min Rain = 0
KFR1 171534Z 22007KT 23/18 A3007 RMK A01 T02270176  RH  073%=      5-min Rain = 0
KFR1 171535Z 23006KT 23/18 A3007 RMK A01 T02290177  RH  072%=      5-min Rain = 0
KFR1 171536Z 23008KT 23/18 A3007 RMK A01 T02300175  RH  071%=      5-min Rain = 0
KFR1 171537Z 23009KT 23/18 A3007 RMK A01 T02280176  RH  072%=      5-min Rain = 0
KFR1 171538Z 22006KT 23/18 A3007 RMK A01 T02270175  RH  073%=      5-min Rain = 0
KFR1 171539Z 23006KT 23/18 A3007 RMK A01 T02260178  RH  074%=      5-min Rain = 0
KFR1 171540Z 22008KT 23/18 A3007 RMK A01 T02290177  RH  072%=      5-min Rain = 0
KFR1 171541Z 22007KT 23/18 A3007 RMK A01 T02300175  RH  071%=      5-min Rain = 0
KFR1 171542Z 23008KT 23/18 A3007 RMK A01 T02300177  RH  072%=      5-min Rain = 0
KFR1 171543Z 22008KT 23/18 A3007 RMK A01 T02310176  RH  071%=      5-min Rain = 0
KFR1 171544Z 23008KT 23/17 A3007 RMK A01 T02320174  RH  070%=      5-min Rain = 0
KFR1 171545Z 24006KT 23/18 A3007 RMK A01 T02300176  RH  072%=      5-min Rain = 0
KFR1 171546Z 22007KT 23/18 A3007 RMK A01 T02290177  RH  072%=      5-min Rain = 0
KFR1 171547Z 23008KT 23/18 A3007 RMK A01 T02300176  RH  072%=      5-min Rain = 0
KFR1 171548Z 22009KT 23/17 A3007 RMK A01 T02300171  RH  069%=      5-min Rain = 0
KFR1 171549Z 22008KT 23/17 A3007 RMK A01 T02300169  RH  068%=      5-min Rain = 0
KFR1 171550Z 21006KT 23/17 A3007 RMK A01 T02300169  RH  068%=      5-min Rain = 0
KFR1 171551Z 22008KT 23/17 A3007 RMK A01 T02300167  RH  068%=      5-min Rain = 0
KFR1 171552Z 23009KT 23/17 A3007 RMK A01 T02310171  RH  069%=      5-min Rain = 0
KFR1 171553Z 21007KT 23/17 A3007 RMK A01 T02310170  RH  069%=      5-min Rain = 0
KFR1 171554Z 22005KT 23/17 A3007 RMK A01 T02320173  RH  069%=      5-min Rain = 0
KFR1 171555Z 20007KT 24/17 A3007 RMK A01 T02350171  RH  067%=      5-min Rain = 0
KFR1 171556Z 19006KT 23/17 A3007 RMK A01 T02340170  RH  067%=      5-min Rain = 0
KFR1 171557Z 20007KT 23/17 A3007 RMK A01 T02320172  RH  069%=      5-min Rain = 0
KFR1 171558Z 21008KT 23/17 A3006 RMK A01 T02330168  RH  067%=      5-min Rain = 0
KFR1 171559Z 21006KT 23/17 A3006 RMK A01 T02330170  RH  067%=      5-min Rain = 0
KFR1 171600Z 22005KT 23/17 A3006 RMK A01 T02340171  RH  068%=      5-min Rain = 0
KFR1 171601Z 22006KT 23/17 A3006 RMK A01 T02340173  RH  068%=      5-min Rain = 0
KFR1 171602Z 21005KT 23/17 A3006 RMK A01 T02340173  RH  069%=      5-min Rain = 0
KFR1 171603Z 22006KT 23/17 A3006 RMK A01 T02340171  RH  068%=      5-min Rain = 0
KFR1 171604Z 23008KT 24/17 A3006 RMK A01 T02350165  RH  065%=      5-min Rain = 0
KFR1 171605Z 22007KT 24/16 A3006 RMK A01 T02350162  RH  063%=      5-min Rain = 0
KFR1 171606Z 22007KT 24/16 A3006 RMK A01 T02370160  RH  062%=      5-min Rain = 0
KFR1 171607Z 23007KT 24/17 A3006 RMK A01 T02380165  RH  063%=      5-min Rain = 0
KFR1 171608Z 23007KT 24/17 A3006 RMK A01 T02380165  RH  063%=      5-min Rain = 0
KFR1 171609Z 22006KT 24/17 A3006 RMK A01 T02370168  RH  066%=      5-min Rain = 0
KFR1 171610Z 19005KT 24/16 A3006 RMK A01 T02360163  RH  063%=      5-min Rain = 0
KFR1 171611Z 21005KT 24/17 A3006 RMK A01 T02380169  RH  065%=      5-min Rain = 0
KFR1 171612Z 21003KT 24/17 A3006 RMK A01 T02380170  RH  065%=      5-min Rain = 0
KFR1 171613Z 22006KT 24/17 A3006 RMK A01 T02390172  RH  066%=      5-min Rain = 0
KFR1 171614Z 21009KT 24/16 A3006 RMK A01 T02400159  RH  060%=      5-min Rain = 0
KFR1 171615Z 21008KT 24/15 A3006 RMK A01 T02390149  RH  057%=      5-min Rain = 0
KFR1 171616Z 21007KT 24/15 A3006 RMK A01 T02390148  RH  057%=      5-min Rain = 0
KFR1 171617Z 21007KT 24/15 A3006 RMK A01 T02400154  RH  058%=      5-min Rain = 0
KFR1 171618Z 21006KT 24/16 A3006 RMK A01 T02420155  RH  058%=      5-min Rain = 0
KFR1 171619Z 22005KT 24/16 A3006 RMK A01 T02430159  RH  059%=      5-min Rain = 0
KFR1 171620Z 18006KT 25/16 A3006 RMK A01 T02450162  RH  060%=      5-min Rain = 0
KFR1 171621Z 18007KT 25/16 A3006 RMK A01 T02470157  RH  058%=      5-min Rain = 0
KFR1 171622Z 20005KT 25/15 A3006 RMK A01 T02470154  RH  056%=      5-min Rain = 0
KFR1 171623Z 21007KT 25/15 A3006 RMK A01 T02480151  RH  055%=      5-min Rain = 0
KFR1 171624Z 21006KT 25/15 A3006 RMK A01 T02480152  RH  055%=      5-min Rain = 0
KFR1 171625Z 21005KT 25/15 A3006 RMK A01 T02490151  RH  055%=      5-min Rain = 0
KFR1 171626Z 22005KT 25/15 A3006 RMK A01 T02490152  RH  055%=      5-min Rain = 0
KFR1 171627Z 24005KT 25/16 A3006 RMK A01 T02480157  RH  057%=      5-min Rain = 0
KFR1 171628Z 21005KT 25/16 A3006 RMK A01 T02470162  RH  059%=      5-min Rain = 0
KFR1 171629Z 18005KT 25/16 A3006 RMK A01 T02470156  RH  057%=      5-min Rain = 0
KFR1 171630Z 17003KT 25/15 A3006 RMK A01 T02470154  RH  056%=      5-min Rain = 0
KFR1 171631Z 15002KT 25/16 A3006 RMK A01 T02480159  RH  058%=      5-min Rain = 0
KFR1 171632Z 18006KT 25/16 A3006 RMK A01 T02500156  RH  056%=      5-min Rain = 0
KFR1 171633Z 21005KT 25/16 A3006 RMK A01 T02510155  RH  055%=      5-min Rain = 0
KFR1 171634Z 22006KT 25/15 A3006 RMK A01 T02510149  RH  053%=      5-min Rain = 0
KFR1 171635Z 25005KT 25/15 A3006 RMK A01 T02480149  RH  054%=      5-min Rain = 0
KFR1 171636Z 22008KT 25/15 A3006 RMK A01 T02460153  RH  056%=      5-min Rain = 0
KFR1 171637Z 23005KT 25/15 A3006 RMK A01 T02460152  RH  056%=      5-min Rain = 0
KFR1 171638Z 23004KT 25/15 A3006 RMK A01 T02460152  RH  056%=      5-min Rain = 0
KFR1 171639Z 22005KT 25/15 A3006 RMK A01 T02470152  RH  055%=      5-min Rain = 0
KFR1 171640Z 19004KT 25/15 A3006 RMK A01 T02460150  RH  055%=      5-min Rain = 0
KFR1 171641Z 22007KT 25/16 A3006 RMK A01 T02460155  RH  057%=      5-min Rain = 0
KFR1 171642Z 23007KT 25/15 A3006 RMK A01 T02490152  RH  055%=      5-min Rain = 0
KFR1 171643Z 20007KT 25/15 A3006 RMK A01 T02500150  RH  054%=      5-min Rain = 0
KFR1 171644Z 17005KT 25/16 A3006 RMK A01 T02520155  RH  055%=      5-min Rain = 0
KFR1 171645Z 14003KT 25/15 A3006 RMK A01 T02540153  RH  054%=      5-min Rain = 0
KFR1 171646Z 13001KT 25/15 A3006 RMK A01 T02540153  RH  053%=      5-min Rain = 0
KFR1 171647Z 17001KT 26/15 A3006 RMK A01 T02550153  RH  053%=      5-min Rain = 0
KFR1 171648Z 22005KT 26/16 A3006 RMK A01 T02560155  RH  054%=      5-min Rain = 0
KFR1 171649Z 22004KT 25/15 A3006 RMK A01 T02540154  RH  054%=      5-min Rain = 0
KFR1 171650Z 22003KT 25/16 A3006 RMK A01 T02520156  RH  055%=      5-min Rain = 0
KFR1 171651Z 22005KT 25/16 A3006 RMK A01 T02530156  RH  055%=      5-min Rain = 0
KFR1 171652Z 21006KT 25/15 A3006 RMK A01 T02540150  RH  053%=      5-min Rain = 0
KFR1 171653Z 21007KT 25/13 A3006 RMK A01 T02540127  RH  045%=      5-min Rain = 0
KFR1 171654Z 20007KT 25/13 A3006 RMK A01 T02540125  RH  045%=      5-min Rain = 0
KFR1 171655Z 19003KT 25/13 A3006 RMK A01 T02530128  RH  046%=      5-min Rain = 0
KFR1 171656Z 18003KT 25/13 A3006 RMK A01 T02530134  RH  047%=      5-min Rain = 0
KFR1 171657Z 15002KT 26/14 A3006 RMK A01 T02550137  RH  048%=      5-min Rain = 0
KFR1 171658Z 13003KT 26/14 A3006 RMK A01 T02560136  RH  047%=      5-min Rain = 0
KFR1 171659Z 13005KT 26/14 A3006 RMK A01 T02570139  RH  048%=      5-min Rain = 0
KFR1 171700Z 12004KT 26/15 A3006 RMK A01 T02580145  RH  050%=      5-min Rain = 0
KFR1 171701Z 10004KT 26/15 A3006 RMK A01 T02580146  RH  050%=      5-min Rain = 0
KFR1 171702Z 11004KT 26/15 A3006 RMK A01 T02580147  RH  050%=      5-min Rain = 0
KFR1 171703Z 17003KT 26/15 A3006 RMK A01 T02590152  RH  052%=      5-min Rain = 0
KFR1 171704Z 26004KT 26/16 A3006 RMK A01 T02590156  RH  053%=      5-min Rain = 0
KFR1 171705Z 28003KT 26/17 A3006 RMK A01 T02600166  RH  056%=      5-min Rain = 0
KFR1 171706Z 26005KT 26/16 A3006 RMK A01 T02580163  RH  056%=      5-min Rain = 0
KFR1 171707Z 25006KT 26/16 A3006 RMK A01 T02580155  RH  053%=      5-min Rain = 0
KFR1 171708Z 25005KT 26/15 A3007 RMK A01 T02570152  RH  052%=      5-min Rain = 0
KFR1 171709Z 23005KT 26/16 A3007 RMK A01 T02550156  RH  054%=      5-min Rain = 0
KFR1 171710Z 22007KT 25/15 A3007 RMK A01 T02540154  RH  054%=      5-min Rain = 0
KFR1 171711Z 21006KT 25/15 A3007 RMK A01 T02510150  RH  054%=      5-min Rain = 0
KFR1 171712Z 23005KT 25/15 A3006 RMK A01 T02490152  RH  055%=      5-min Rain = 0
KFR1 171713Z 25004KT 25/15 A3006 RMK A01 T02490149  RH  054%=      5-min Rain = 0
KFR1 171714Z 24005KT 25/15 A3006 RMK A01 T02490152  RH  055%=      5-min Rain = 0
KFR1 171715Z 24005KT 25/15 A3006 RMK A01 T02510153  RH  055%=      5-min Rain = 0
KFR1 171716Z 21004KT 25/15 A3006 RMK A01 T02530153  RH  054%=      5-min Rain = 0
KFR1 171717Z 18002KT 25/14 A3006 RMK A01 T02540144  RH  051%=      5-min Rain = 0
KFR1 171718Z 22001KT 25/15 A3006 RMK A01 T02530146  RH  051%=      5-min Rain = 0
KFR1 171719Z 17003KT 25/15 A3006 RMK A01 T02530146  RH  051%=      5-min Rain = 0
KFR1 171720Z 19005KT 26/14 A3006 RMK A01 T02550141  RH  049%=      5-min Rain = 0
KFR1 171721Z 20006KT 26/14 A3006 RMK A01 T02550138  RH  048%=      5-min Rain = 0
KFR1 171722Z 20006KT 26/14 A3006 RMK A01 T02570141  RH  049%=      5-min Rain = 0
KFR1 171723Z 20006KT 26/14 A3006 RMK A01 T02580139  RH  048%=      5-min Rain = 0
KFR1 171724Z 18004KT 26/15 A3006 RMK A01 T02610146  RH  049%=      5-min Rain = 0
KFR1 171725Z 20004KT 26/15 A3006 RMK A01 T02640150  RH  050%=      5-min Rain = 0
KFR1 171726Z 22007KT 27/15 A3006 RMK A01 T02660146  RH  048%=      5-min Rain = 0
KFR1 171727Z 18009KT 27/14 A3006 RMK A01 T02660142  RH  046%=      5-min Rain = 0
KFR1 171728Z 17007KT 27/14 A3007 RMK A01 T02660139  RH  046%=      5-min Rain = 0
KFR1 171729Z 17005KT 26/14 A3007 RMK A01 T02640137  RH  046%=      5-min Rain = 0
KFR1 171730Z 17003KT 26/13 A3006 RMK A01 T02630131  RH  044%=      5-min Rain = 0
KFR1 171731Z 21002KT 26/13 A3006 RMK A01 T02610132  RH  045%=      5-min Rain = 0
KFR1 171732Z 22004KT 26/13 A3006 RMK A01 T02620132  RH  045%=      5-min Rain = 0
KFR1 171733Z 22004KT 26/13 A3006 RMK A01 T02620131  RH  044%=      5-min Rain = 0
KFR1 171734Z 21004KT 26/14 A3007 RMK A01 T02620135  RH  046%=      5-min Rain = 0
KFR1 171735Z 21007KT 26/14 A3007 RMK A01 T02620135  RH  045%=      5-min Rain = 0
KFR1 171736Z 22008KT 26/13 A3006 RMK A01 T02610131  RH  044%=      5-min Rain = 0
KFR1 171737Z 21007KT 26/14 A3006 RMK A01 T02600135  RH  046%=      5-min Rain = 0
KFR1 171738Z 21005KT 26/13 A3006 RMK A01 T02620133  RH  045%=      5-min Rain = 0
KFR1 171739Z 22007KT 26/13 A3006 RMK A01 T02620133  RH  045%=      5-min Rain = 0
KFR1 171740Z 23006KT 26/14 A3006 RMK A01 T02630135  RH  045%=      5-min Rain = 0
KFR1 171741Z 22006KT 26/14 A3006 RMK A01 T02620138  RH  046%=      5-min Rain = 0
KFR1 171742Z 21006KT 26/14 A3006 RMK A01 T02610138  RH  047%=      5-min Rain = 0
KFR1 171743Z 21005KT 26/14 A3006 RMK A01 T02630135  RH  045%=      5-min Rain = 0
KFR1 171744Z 22006KT 26/14 A3006 RMK A01 T02630140  RH  047%=      5-min Rain = 0
KFR1 171745Z 23007KT 26/14 A3006 RMK A01 T02620142  RH  048%=      5-min Rain = 0
KFR1 171746Z 23004KT 26/14 A3006 RMK A01 T02620135  RH  046%=      5-min Rain = 0
KFR1 171747Z 23006KT 26/14 A3006 RMK A01 T02610142  RH  048%=      5-min Rain = 0
KFR1 171748Z 22006KT 26/14 A3006 RMK A01 T02610140  RH  047%=      5-min Rain = 0
KFR1 171749Z 21005KT 26/15 A3006 RMK A01 T02630145  RH  048%=      5-min Rain = 0
KFR1 171750Z 18007KT 27/14 A3006 RMK A01 T02660144  RH  047%=      5-min Rain = 0
KFR1 171751Z 18006KT 27/14 A3006 RMK A01 T02660141  RH  046%=      5-min Rain = 0
KFR1 171752Z 19006KT 27/14 A3006 RMK A01 T02650142  RH  047%=      5-min Rain = 0
KFR1 171753Z 20007KT 27/15 A3006 RMK A01 T02670147  RH  048%=      5-min Rain = 0
KFR1 171754Z 22007KT 27/14 A3006 RMK A01 T02690140  RH  045%=      5-min Rain = 0
KFR1 171755Z 23007KT 27/14 A3006 RMK A01 T02680141  RH  046%=      5-min Rain = 0
KFR1 171756Z 23006KT 27/14 A3006 RMK A01 T02660135  RH  044%=      5-min Rain = 0
KFR1 171757Z 22005KT 26/13 A3006 RMK A01 T02640130  RH  043%=      5-min Rain = 0
KFR1 171758Z 21004KT 26/13 A3006 RMK A01 T02610128  RH  044%=      5-min Rain = 0
KFR1 171759Z 21005KT 26/13 A3006 RMK A01 T02600133  RH  045%=      5-min Rain = 0
KFR1 171800Z 17008KT 26/13 A3006 RMK A01 T02620130  RH  044%=      5-min Rain = 0
KFR1 171801Z 17008KT 26/13 A3006 RMK A01 T02640126  RH  042%=      5-min Rain = 0
KFR1 171802Z 18007KT 26/13 A3006 RMK A01 T02640127  RH  043%=      5-min Rain = 0
KFR1 171803Z 18007KT 26/13 A3006 RMK A01 T02640129  RH  043%=      5-min Rain = 0
KFR1 171804Z 19007KT 27/12 A3006 RMK A01 T02650124  RH  041%=      5-min Rain = 0
KFR1 171805Z 19007KT 27/12 A3006 RMK A01 T02650123  RH  041%=      5-min Rain = 0
KFR1 171806Z 19005KT 26/12 A3006 RMK A01 T02640123  RH  041%=      5-min Rain = 0
KFR1 171807Z 20009KT 26/13 A3005 RMK A01 T02640125  RH  042%=      5-min Rain = 0
KFR1 171808Z 19008KT 27/12 A3005 RMK A01 T02670122  RH  041%=      5-min Rain = 0
KFR1 171809Z 17007KT 27/12 A3006 RMK A01 T02680118  RH  039%=      5-min Rain = 0
KFR1 171810Z 16007KT 27/12 A3006 RMK A01 T02680120  RH  040%=      5-min Rain = 0
KFR1 171811Z 15005KT 27/12 A3005 RMK A01 T02670120  RH  040%=      5-min Rain = 0
KFR1 171812Z 14005KT 27/12 A3005 RMK A01 T02670124  RH  041%=      5-min Rain = 0
KFR1 171813Z 14005KT 27/12 A3005 RMK A01 T02670123  RH  041%=      5-min Rain = 0
KFR1 171814Z 19006KT 27/13 A3005 RMK A01 T02670130  RH  043%=      5-min Rain = 0
KFR1 171815Z 20004KT 27/12 A3005 RMK A01 T02690120  RH  040%=      5-min Rain = 0
KFR1 171816Z 20004KT 27/12 A3005 RMK A01 T02660119  RH  040%=      5-min Rain = 0
KFR1 171817Z 22008KT 27/12 A3005 RMK A01 T02660122  RH  041%=      5-min Rain = 0
KFR1 171818Z 24006KT 27/13 A3005 RMK A01 T02670126  RH  042%=      5-min Rain = 0
KFR1 171819Z 24004KT 27/13 A3005 RMK A01 T02670128  RH  042%=      5-min Rain = 0
KFR1 171820Z 23008KT 27/13 A3005 RMK A01 T02680127  RH  042%=      5-min Rain = 0
KFR1 171821Z 19006KT 27/13 A3005 RMK A01 T02700129  RH  042%=      5-min Rain = 0
KFR1 171822Z 18008KT 27/13 A3005 RMK A01 T02720126  RH  040%=      5-min Rain = 0
KFR1 171823Z 17006KT 27/13 A3005 RMK A01 T02710129  RH  041%=      5-min Rain = 0
KFR1 171824Z 19006KT 27/13 A3005 RMK A01 T02710129  RH  041%=      5-min Rain = 0
KFR1 171825Z 21006KT 27/12 A3005 RMK A01 T02710120  RH  039%=      5-min Rain = 0
KFR1 171826Z 20008KT 27/12 A3005 RMK A01 T02690124  RH  041%=      5-min Rain = 0
KFR1 171827Z 18005KT 27/13 A3005 RMK A01 T02690132  RH  043%=      5-min Rain = 0
KFR1 171828Z 15005KT 27/13 A3005 RMK A01 T02720130  RH  042%=      5-min Rain = 0
KFR1 171829Z 15004KT 27/13 A3005 RMK A01 T02730125  RH  040%=      5-min Rain = 0
KFR1 171830Z 15003KT 27/12 A3005 RMK A01 T02720124  RH  040%=      5-min Rain = 0
KFR1 171831Z 19005KT 27/14 A3005 RMK A01 T02720136  RH  043%=      5-min Rain = 0
KFR1 171832Z 20007KT 28/12 A3005 RMK A01 T02750120  RH  038%=      5-min Rain = 0
KFR1 171833Z 19006KT 28/12 A3005 RMK A01 T02750120  RH  038%=      5-min Rain = 0
KFR1 171834Z 16007KT 28/11 A3005 RMK A01 T02750112  RH  036%=      5-min Rain = 0
KFR1 171835Z 15006KT 28/11 A3005 RMK A01 T02750107  RH  035%=      5-min Rain = 0
KFR1 171836Z 13006KT 27/11 A3005 RMK A01 T02730107  RH  036%=      5-min Rain = 0
KFR1 171837Z 14005KT 27/11 A3005 RMK A01 T02700105  RH  035%=      5-min Rain = 0
KFR1 171838Z 16005KT 27/12 A3005 RMK A01 T02690118  RH  039%=      5-min Rain = 0
KFR1 171839Z 18005KT 27/12 A3004 RMK A01 T02700118  RH  039%=      5-min Rain = 0
KFR1 171840Z 21005KT 27/12 A3004 RMK A01 T02710115  RH  038%=      5-min Rain = 0
KFR1 171841Z 17004KT 27/12 A3004 RMK A01 T02700116  RH  038%=      5-min Rain = 0
KFR1 171842Z 14005KT 27/12 A3004 RMK A01 T02710121  RH  039%=      5-min Rain = 0
KFR1 171843Z 12005KT 27/12 A3004 RMK A01 T02720118  RH  039%=      5-min Rain = 0
KFR1 171844Z 18004KT 27/12 A3004 RMK A01 T02710116  RH  038%=      5-min Rain = 0
KFR1 171845Z 21007KT 27/12 A3004 RMK A01 T02710123  RH  040%=      5-min Rain = 0
KFR1 171846Z 23009KT 27/12 A3004 RMK A01 T02740122  RH  039%=      5-min Rain = 0
KFR1 171847Z 23009KT 28/12 A3004 RMK A01 T02760115  RH  037%=      5-min Rain = 0
KFR1 171848Z 22009KT 28/11 A3004 RMK A01 T02750111  RH  036%=      5-min Rain = 0
KFR1 171849Z 22007KT 27/12 A3004 RMK A01 T02740120  RH  038%=      5-min Rain = 0
KFR1 171850Z 19008KT 28/12 A3004 RMK A01 T02760121  RH  038%=      5-min Rain = 0
KFR1 171851Z 19009KT 28/11 A3004 RMK A01 T02790108  RH  034%=      5-min Rain = 0
KFR1 171852Z 19008KT 28/10 A3004 RMK A01 T02780100  RH  033%=      5-min Rain = 0
KFR1 171853Z 18007G12KT 28/10 A3004 RMK A01 T02760098  RH  033%=      5-min Rain = 0
KFR1 171854Z 18007KT 27/11 A3004 RMK A01 T02740107  RH  035%=      5-min Rain = 0
KFR1 171855Z 19004KT 27/11 A3004 RMK A01 T02720108  RH  036%=      5-min Rain = 0
KFR1 171856Z 16007KT 27/12 A3004 RMK A01 T02710119  RH  039%=      5-min Rain = 0
KFR1 171857Z 18008KT 27/12 A3004 RMK A01 T02730123  RH  039%=      5-min Rain = 0
KFR1 171858Z 17006KT 28/12 A3004 RMK A01 T02750117  RH  038%=      5-min Rain = 0
KFR1 171859Z 17005KT 28/12 A3004 RMK A01 T02750119  RH  038%=      5-min Rain = 0
KFR1 171900Z 16004KT 27/11 A3004 RMK A01 T02730112  RH  037%=      5-min Rain = 0
KFR1 171901Z 12002KT 27/11 A3004 RMK A01 T02710113  RH  037%=      5-min Rain = 0
KFR1 171902Z 16002KT 27/12 A3004 RMK A01 T02700121  RH  040%=      5-min Rain = 0
KFR1 171903Z 20009KT 27/12 A3003 RMK A01 T02720124  RH  040%=      5-min Rain = 0
KFR1 171904Z 19009KT 27/12 A3003 RMK A01 T02740120  RH  038%=      5-min Rain = 0
KFR1 171905Z 17007KT 27/12 A3003 RMK A01 T02740122  RH  039%=      5-min Rain = 0
KFR1 171906Z 20006KT 27/12 A3003 RMK A01 T02740122  RH  039%=      5-min Rain = 0
KFR1 171907Z 20008KT 28/13 A3003 RMK A01 T02750125  RH  039%=      5-min Rain = 0
KFR1 171908Z 19010KT 28/13 A3003 RMK A01 T02780125  RH  039%=      5-min Rain = 0
KFR1 171909Z 19003KT 28/12 A3003 RMK A01 T02770119  RH  037%=      5-min Rain = 0
KFR1 171910Z 23003KT 27/12 A3003 RMK A01 T02740124  RH  039%=      5-min Rain = 0
KFR1 171911Z 20005KT 28/13 A3003 RMK A01 T02750130  RH  041%=      5-min Rain = 0
KFR1 171912Z 19009KT 28/13 A3003 RMK A01 T02770127  RH  040%=      5-min Rain = 0
KFR1 171913Z 19010KT 28/12 A3003 RMK A01 T02780123  RH  038%=      5-min Rain = 0
KFR1 171914Z 21010KT 28/12 A3003 RMK A01 T02780122  RH  038%=      5-min Rain = 0
KFR1 171915Z 18012KT 28/13 A3003 RMK A01 T02780126  RH  039%=      5-min Rain = 0
KFR1 171916Z 18009KT 28/13 A3003 RMK A01 T02780126  RH  039%=      5-min Rain = 0
KFR1 171917Z 17007KT 28/13 A3003 RMK A01 T02770125  RH  039%=      5-min Rain = 0
KFR1 171918Z 19005KT 28/13 A3003 RMK A01 T02770134  RH  041%=      5-min Rain = 0
KFR1 171919Z 21005KT 28/14 A3003 RMK A01 T02810135  RH  041%=      5-min Rain = 0
KFR1 171920Z 21006KT 28/12 A3003 RMK A01 T02840123  RH  037%=      5-min Rain = 0
KFR1 171921Z 23004KT 28/12 A3003 RMK A01 T02790122  RH  038%=      5-min Rain = 0
KFR1 171922Z 19005KT 28/13 A3003 RMK A01 T02760129  RH  040%=      5-min Rain = 0
KFR1 171923Z 20006KT 28/13 A3003 RMK A01 T02770127  RH  040%=      5-min Rain = 0
KFR1 171924Z 19010KT 28/13 A3002 RMK A01 T02780128  RH  040%=      5-min Rain = 0
KFR1 171925Z 19009KT 28/12 A3002 RMK A01 T02770124  RH  039%=      5-min Rain = 0
KFR1 171926Z 18006G12KT 28/13 A3002 RMK A01 T02770129  RH  040%=      5-min Rain = 0
KFR1 171927Z 20009G14KT 28/13 A3002 RMK A01 T02790132  RH  040%=      5-min Rain = 0
KFR1 171928Z 20010KT 28/13 A3002 RMK A01 T02810126  RH  038%=      5-min Rain = 0
KFR1 171929Z 19010KT 28/13 A3002 RMK A01 T02820130  RH  039%=      5-min Rain = 0
KFR1 171930Z 19011KT 28/13 A3002 RMK A01 T02820125  RH  038%=      5-min Rain = 0
KFR1 171931Z 19009KT 28/13 A3002 RMK A01 T02820128  RH  039%=      5-min Rain = 0
KFR1 171932Z 20010KT 28/12 A3002 RMK A01 T02810124  RH  038%=      5-min Rain = 0
KFR1 171933Z 20009KT 28/12 A3002 RMK A01 T02780120  RH  038%=      5-min Rain = 0
KFR1 171934Z 20007KT 28/12 A3002 RMK A01 T02770121  RH  038%=      5-min Rain = 0
KFR1 171935Z 19005KT 28/12 A3002 RMK A01 T02780123  RH  038%=      5-min Rain = 0
KFR1 171936Z 21004KT 28/13 A3002 RMK A01 T02780127  RH  039%=      5-min Rain = 0
KFR1 171937Z 19003KT 28/13 A3002 RMK A01 T02800131  RH  040%=      5-min Rain = 0
KFR1 171938Z 17003KT 28/13 A3002 RMK A01 T02820134  RH  040%=      5-min Rain = 0
KFR1 171939Z 16004KT 28/13 A3002 RMK A01 T02840131  RH  039%=      5-min Rain = 0
KFR1 171940Z 14005KT 28/13 A3002 RMK A01 T02840134  RH  040%=      5-min Rain = 0
KFR1 171941Z 16004KT 28/13 A3002 RMK A01 T02840127  RH  038%=      5-min Rain = 0
KFR1 171942Z 17007KT 28/13 A3002 RMK A01 T02820127  RH  038%=      5-min Rain = 0
KFR1 171943Z 16006KT 28/13 A3002 RMK A01 T02810129  RH  039%=      5-min Rain = 0
KFR1 171944Z 16005KT 28/14 A3002 RMK A01 T02820135  RH  040%=      5-min Rain = 0
KFR1 171945Z 17004KT 28/13 A3002 RMK A01 T02840134  RH  040%=      5-min Rain = 0
KFR1 171946Z 20004KT 29/13 A3002 RMK A01 T02860133  RH  039%=      5-min Rain = 0
KFR1 171947Z 16007KT 29/13 A3002 RMK A01 T02860125  RH  037%=      5-min Rain = 0
KFR1 171948Z 15006KT 28/13 A3002 RMK A01 T02830128  RH  038%=      5-min Rain = 0
KFR1 171949Z 16009KT 28/13 A3002 RMK A01 T02820126  RH  038%=      5-min Rain = 0
KFR1 171950Z 19008KT 28/12 A3002 RMK A01 T02810124  RH  038%=      5-min Rain = 0
KFR1 171951Z 19003KT 28/13 A3002 RMK A01 T02800132  RH  040%=      5-min Rain = 0
KFR1 171952Z 16004KT 28/13 A3002 RMK A01 T02820131  RH  039%=      5-min Rain = 0
KFR1 171953Z 15005KT 28/13 A3002 RMK A01 T02840131  RH  039%=      5-min Rain = 0
KFR1 171954Z 16008KT 29/13 A3002 RMK A01 T02850131  RH  039%=      5-min Rain = 0
KFR1 171955Z 15007KT 28/13 A3002 RMK A01 T02840131  RH  039%=      5-min Rain = 0
KFR1 171956Z 17011KT 29/13 A3002 RMK A01 T02850133  RH  039%=      5-min Rain = 0
KFR1 171957Z 16010KT 29/13 A3002 RMK A01 T02860132  RH  039%=      5-min Rain = 0
KFR1 171958Z 16008KT 29/13 A3002 RMK A01 T02860134  RH  039%=      5-min Rain = 0
KFR1 171959Z 17010KT 29/13 A3002 RMK A01 T02870130  RH  038%=      5-min Rain = 0
KFR1 172000Z 17010KT 29/14 A3002 RMK A01 T02860138  RH  040%=      5-min Rain = 0
KFR1 172001Z 19010KT 29/13 A3002 RMK A01 T02870130  RH  038%=      5-min Rain = 0
KFR1 172002Z 20009KT 29/12 A3002 RMK A01 T02860124  RH  037%=      5-min Rain = 0
KFR1 172003Z 20006KT 28/12 A3001 RMK A01 T02810122  RH  037%=      5-min Rain = 0
KFR1 172004Z 20004KT 28/13 A3001 RMK A01 T02810129  RH  039%=      5-min Rain = 0
KFR1 172005Z 19003KT 28/13 A3001 RMK A01 T02810131  RH  040%=      5-min Rain = 0
KFR1 172006Z 17009KT 28/14 A3001 RMK A01 T02840138  RH  041%=      5-min Rain = 0
KFR1 172007Z 16007KT 29/13 A3001 RMK A01 T02850129  RH  038%=      5-min Rain = 0
KFR1 172008Z 16009KT 29/13 A3001 RMK A01 T02850129  RH  038%=      5-min Rain = 0
KFR1 172009Z 15006KT 29/13 A3001 RMK A01 T02850130  RH  038%=      5-min Rain = 0
KFR1 172010Z 14006KT 29/14 A3001 RMK A01 T02850138  RH  041%=      5-min Rain = 0
KFR1 172011Z 15008KT 29/12 A3001 RMK A01 T02850123  RH  037%=      5-min Rain = 0
KFR1 172012Z 16005KT 28/13 A3001 RMK A01 T02830129  RH  039%=      5-min Rain = 0
KFR1 172013Z 17007KT 28/13 A3001 RMK A01 T02830130  RH  039%=      5-min Rain = 0
KFR1 172014Z 17008G13KT 28/13 A3001 RMK A01 T02840130  RH  039%=      5-min Rain = 0
KFR1 172015Z 19013KT 28/13 A3001 RMK A01 T02840130  RH  039%=      5-min Rain = 0
KFR1 172016Z 18014KT 28/13 A3001 RMK A01 T02840130  RH  039%=      5-min Rain = 0
KFR1 172017Z 19010KT 28/13 A3001 RMK A01 T02840132  RH  039%=      5-min Rain = 0
KFR1 172018Z 18010KT 29/14 A3001 RMK A01 T02860136  RH  040%=      5-min Rain = 0
KFR1 172019Z 19010KT 29/13 A3001 RMK A01 T02860125  RH  037%=      5-min Rain = 0
KFR1 172020Z 18008KT 28/13 A3001 RMK A01 T02830132  RH  039%=      5-min Rain = 0
KFR1 172021Z 18012KT 28/13 A3001 RMK A01 T02840130  RH  039%=      5-min Rain = 0
KFR1 172022Z 18011KT 28/13 A3001 RMK A01 T02840125  RH  037%=      5-min Rain = 0
KFR1 172023Z 18010KT 28/12 A3001 RMK A01 T02830124  RH  038%=      5-min Rain = 0
KFR1 172024Z 17009KT 28/13 A3001 RMK A01 T02820130  RH  039%=      5-min Rain = 0
KFR1 172025Z 17007KT 28/14 A3001 RMK A01 T02840135  RH  040%=      5-min Rain = 0
KFR1 172026Z 16009KT 29/14 A3001 RMK A01 T02870138  RH  040%=      5-min Rain = 0
KFR1 172027Z 18006KT 29/14 A3001 RMK A01 T02890136  RH  039%=      5-min Rain = 0
KFR1 172028Z 18010KT 29/13 A30 RMK A01 T02900133  RH  038%=      5-min Rain = 0
KFR1 172029Z 17008KT 29/13 A30 RMK A01 T02880128  RH  037%=      5-min Rain = 0
KFR1 172030Z 18008KT 29/13 A30 RMK A01 T02860131  RH  038%=      5-min Rain = 0
KFR1 172031Z 17006KT 29/13 A30 RMK A01 T02860130  RH  038%=      5-min Rain = 0
KFR1 172032Z 18005G11KT 29/14 A30 RMK A01 T02860139  RH  040%=      5-min Rain = 0
KFR1 172033Z 19010KT 29/13 A30 RMK A01 T02880130  RH  038%=      5-min Rain = 0
KFR1 172034Z 18006KT 29/12 A30 RMK A01 T02870124  RH  037%=      5-min Rain = 0
KFR1 172035Z 14008KT 29/13 A30 RMK A01 T02850130  RH  038%=      5-min Rain = 0
KFR1 172036Z 13009KT 29/13 A30 RMK A01 T02850127  RH  038%=      5-min Rain = 0
KFR1 172037Z 13010KT 29/13 A30 RMK A01 T02860126  RH  037%=      5-min Rain = 0
KFR1 172038Z 15010KT 29/12 A30 RMK A01 T02850122  RH  037%=      5-min Rain = 0
KFR1 172039Z 15010KT 28/13 A30 RMK A01 T02840125  RH  037%=      5-min Rain = 0
KFR1 172040Z 16008G13KT 29/13 A30 RMK A01 T02850133  RH  039%=      5-min Rain = 0
KFR1 172041Z 16008KT 29/13 A30 RMK A01 T02870133  RH  039%=      5-min Rain = 0
KFR1 172042Z 17011KT 29/13 A30 RMK A01 T02890131  RH  038%=      5-min Rain = 0
KFR1 172043Z 17010G15KT 29/12 A30 RMK A01 T02880123  RH  036%=      5-min Rain = 0
KFR1 172044Z 18011KT 29/13 A2999 RMK A01 T02860126  RH  037%=      5-min Rain = 0
KFR1 172045Z 17012KT 29/12 A2999 RMK A01 T02850124  RH  037%=      5-min Rain = 0
KFR1 172046Z 16009KT 28/13 A30 RMK A01 T02840126  RH  038%=      5-min Rain = 0
KFR1 172047Z 15007KT 28/12 A30 RMK A01 T02840122  RH  037%=      5-min Rain = 0
KFR1 172048Z 17009KT 28/13 A30 RMK A01 T02840129  RH  039%=      5-min Rain = 0
KFR1 172049Z 16009KT 29/12 A30 RMK A01 T02850123  RH  037%=      5-min Rain = 0
KFR1 172050Z 15008KT 29/12 A30 RMK A01 T02850124  RH  037%=      5-min Rain = 0
KFR1 172051Z 15007G12KT 29/12 A30 RMK A01 T02850117  RH  035%=      5-min Rain = 0
KFR1 172052Z 16008KT 29/12 A2999 RMK A01 T02850115  RH  035%=      5-min Rain = 0
KFR1 172053Z 17011KT 28/12 A2999 RMK A01 T02840124  RH  037%=      5-min Rain = 0
KFR1 172054Z 15008KT 29/12 A2999 RMK A01 T02860115  RH  035%=      5-min Rain = 0
KFR1 172055Z 15008KT 29/12 A2999 RMK A01 T02850116  RH  035%=      5-min Rain = 0
KFR1 172056Z 15009KT 29/12 A2999 RMK A01 T02850120  RH  036%=      5-min Rain = 0
KFR1 172057Z 15010KT 29/13 A2999 RMK A01 T02860125  RH  037%=      5-min Rain = 0
KFR1 172058Z 17011KT 29/13 A2999 RMK A01 T02890128  RH  037%=      5-min Rain = 0
KFR1 172059Z 17011KT 29/12 A2999 RMK A01 T02890119  RH  035%=      5-min Rain = 0
KFR1 172100Z 16010KT 29/13 A2999 RMK A01 T02880126  RH  037%=      5-min Rain = 0
KFR1 172101Z 15009G14KT 29/12 A2999 RMK A01 T02880121  RH  036%=      5-min Rain = 0
KFR1 172102Z 16009KT 29/13 A2999 RMK A01 T02870127  RH  037%=      5-min Rain = 0
KFR1 172103Z 15008KT 29/13 A2999 RMK A01 T02880127  RH  037%=      5-min Rain = 0
KFR1 172104Z 14006KT 29/12 A2999 RMK A01 T02880117  RH  035%=      5-min Rain = 0
KFR1 172105Z 15008G15KT 29/12 A2998 RMK A01 T02860120  RH  036%=      5-min Rain = 0
KFR1 172106Z 16009KT 29/12 A2998 RMK A01 T02860122  RH  036%=      5-min Rain = 0
KFR1 172107Z 16009KT 29/12 A2998 RMK A01 T02870121  RH  036%=      5-min Rain = 0
KFR1 172108Z 16009KT 29/12 A2998 RMK A01 T02870120  RH  036%=      5-min Rain = 0
KFR1 172109Z 16012KT 29/12 A2998 RMK A01 T02870117  RH  035%=      5-min Rain = 0
KFR1 172110Z 17012KT 29/12 A2998 RMK A01 T02870115  RH  034%=      5-min Rain = 0
KFR1 172111Z 18010KT 29/12 A2998 RMK A01 T02870118  RH  035%=      5-min Rain = 0
KFR1 172112Z 16011KT 29/12 A2998 RMK A01 T02870116  RH  035%=      5-min Rain = 0
KFR1 172113Z 15010KT 29/11 A2998 RMK A01 T02870110  RH  033%=      5-min Rain = 0
KFR1 172114Z 15011KT 29/11 A2998 RMK A01 T02860109  RH  033%=      5-min Rain = 0
KFR1 172115Z 15008KT 29/11 A2998 RMK A01 T02860111  RH  034%=      5-min Rain = 0
KFR1 172116Z 15007KT 29/12 A2998 RMK A01 T02870120  RH  036%=      5-min Rain = 0
KFR1 172117Z 15009KT 29/12 A2998 RMK A01 T02900117  RH  034%=      5-min Rain = 0
KFR1 172118Z 15009KT 29/11 A2998 RMK A01 T02900112  RH  033%=      5-min Rain = 0
KFR1 172119Z 16010KT 29/11 A2998 RMK A01 T02890112  RH  034%=      5-min Rain = 0
KFR1 172120Z 14011G16KT 29/11 A2998 RMK A01 T02870107  RH  033%=      5-min Rain = 0
KFR1 172121Z 16010KT 29/11 A2998 RMK A01 T02850107  RH  033%=      5-min Rain = 0
KFR1 172122Z 16008KT 29/12 A2998 RMK A01 T02850116  RH  035%=      5-min Rain = 0
KFR1 172123Z 16007KT 29/12 A2998 RMK A01 T02860118  RH  035%=      5-min Rain = 0
KFR1 172124Z 16010KT 29/11 A2998 RMK A01 T02890114  RH  034%=      5-min Rain = 0
KFR1 172125Z 15006KT 29/12 A2998 RMK A01 T02900115  RH  034%=      5-min Rain = 0
KFR1 172126Z 14009G14KT 29/11 A2998 RMK A01 T02910110  RH  033%=      5-min Rain = 0
KFR1 172127Z 14010G15KT 29/11 A2997 RMK A01 T02900106  RH  032%=      5-min Rain = 0
KFR1 172128Z 16010KT 29/11 A2998 RMK A01 T02880110  RH  033%=      5-min Rain = 0
KFR1 172129Z 16014KT 29/11 A2997 RMK A01 T02880111  RH  033%=      5-min Rain = 0
KFR1 172130Z 18012KT 29/11 A2997 RMK A01 T02880114  RH  034%=      5-min Rain = 0
KFR1 172131Z 17013KT 29/11 A2997 RMK A01 T02880110  RH  033%=      5-min Rain = 0
KFR1 172132Z 16009KT 29/11 A2997 RMK A01 T02880111  RH  033%=      5-min Rain = 0
KFR1 172133Z 17006KT 29/11 A2997 RMK A01 T02860109  RH  033%=      5-min Rain = 0
KFR1 172134Z 16008G13KT 29/12 A2997 RMK A01 T02870117  RH  035%=      5-min Rain = 0
KFR1 172135Z 16011KT 29/11 A2997 RMK A01 T02880113  RH  034%=      5-min Rain = 0
KFR1 172136Z 15009KT 29/11 A2997 RMK A01 T02880114  RH  034%=      5-min Rain = 0
KFR1 172137Z 13009G15KT 29/12 A2997 RMK A01 T02880123  RH  036%=      5-min Rain = 0
KFR1 172138Z 13011KT 29/11 A2997 RMK A01 T02890112  RH  033%=      5-min Rain = 0
KFR1 172139Z 16014KT 29/11 A2997 RMK A01 T02880112  RH  034%=      5-min Rain = 0
KFR1 172140Z 16014KT 29/11 A2997 RMK A01 T02870111  RH  033%=      5-min Rain = 0
KFR1 172141Z 17013KT 29/11 A2997 RMK A01 T02870110  RH  033%=      5-min Rain = 0
KFR1 172142Z 17009KT 29/11 A2997 RMK A01 T02860113  RH  034%=      5-min Rain = 0
KFR1 172143Z 16009KT 29/12 A2997 RMK A01 T02870115  RH  034%=      5-min Rain = 0
KFR1 172144Z 15006KT 29/12 A2997 RMK A01 T02880117  RH  035%=      5-min Rain = 0
KFR1 172145Z 16005G10KT 29/12 A2997 RMK A01 T02890116  RH  034%=      5-min Rain = 0
KFR1 172146Z 17009KT 29/12 A2997 RMK A01 T02900118  RH  034%=      5-min Rain = 0
KFR1 172147Z 16008G13KT 29/12 A2997 RMK A01 T02910121  RH  035%=      5-min Rain = 0
KFR1 172148Z 15011KT 29/12 A2997 RMK A01 T02910115  RH  033%=      5-min Rain = 0
KFR1 172149Z 17011KT 29/12 A2997 RMK A01 T02910116  RH  034%=      5-min Rain = 0
KFR1 172150Z 18010KT 29/12 A2997 RMK A01 T02910118  RH  034%=      5-min Rain = 0
KFR1 172151Z 19011KT 29/12 A2997 RMK A01 T02920120  RH  035%=      5-min Rain = 0
KFR1 172152Z 19012KT 29/11 A2997 RMK A01 T02930113  RH  033%=      5-min Rain = 0
KFR1 172153Z 18012KT 29/11 A2997 RMK A01 T02910111  RH  033%=      5-min Rain = 0
KFR1 172154Z 17012KT 29/12 A2997 RMK A01 T02890115  RH  034%=      5-min Rain = 0
KFR1 172155Z 17009KT 29/12 A2997 RMK A01 T02880115  RH  034%=      5-min Rain = 0
KFR1 172156Z 17009KT 29/12 A2997 RMK A01 T02880118  RH  035%=      5-min Rain = 0
KFR1 172157Z 18012KT 29/12 A2997 RMK A01 T02890116  RH  034%=      5-min Rain = 0
KFR1 172158Z 17010KT 29/11 A2997 RMK A01 T02870105  RH  032%=      5-min Rain = 0
KFR1 172159Z 17008KT 28/11 A2997 RMK A01 T02840106  RH  033%=      5-min Rain = 0
KFR1 172200Z 17009KT 28/11 A2997 RMK A01 T02830111  RH  034%=      5-min Rain = 0
KFR1 172201Z 17010KT 28/11 A2997 RMK A01 T02840112  RH  034%=      5-min Rain = 0
KFR1 172202Z 16011KT 28/11 A2997 RMK A01 T02840109  RH  034%=      5-min Rain = 0
KFR1 172203Z 16010G15KT 28/11 A2997 RMK A01 T02840108  RH  033%=      5-min Rain = 0
KFR1 172204Z 16012KT 28/11 A2996 RMK A01 T02830110  RH  034%=      5-min Rain = 0
KFR1 172205Z 16010KT 28/11 A2996 RMK A01 T02830108  RH  034%=      5-min Rain = 0
KFR1 172206Z 15008KT 28/11 A2996 RMK A01 T02830108  RH  034%=      5-min Rain = 0
KFR1 172207Z 15010KT 28/11 A2996 RMK A01 T02830108  RH  034%=      5-min Rain = 0
KFR1 172208Z 16009KT 28/11 A2996 RMK A01 T02830106  RH  033%=      5-min Rain = 0
KFR1 172209Z 14007KT 28/11 A2996 RMK A01 T02840111  RH  034%=      5-min Rain = 0
KFR1 172210Z 16008KT 28/12 A2996 RMK A01 T02840115  RH  035%=      5-min Rain = 0
KFR1 172211Z 16008KT 29/12 A2996 RMK A01 T02850116  RH  035%=      5-min Rain = 0
KFR1 172212Z 17007KT 29/12 A2996 RMK A01 T02860119  RH  036%=      5-min Rain = 0
KFR1 172213Z 15007KT 29/12 A2996 RMK A01 T02860119  RH  036%=      5-min Rain = 0
KFR1 172214Z 15009KT 29/11 A2996 RMK A01 T02870113  RH  034%=      5-min Rain = 0
KFR1 172215Z 15010KT 29/11 A2996 RMK A01 T02860108  RH  033%=      5-min Rain = 0
KFR1 172216Z 14009KT 29/11 A2996 RMK A01 T02850107  RH  033%=      5-min Rain = 0
KFR1 172217Z 16010KT 28/10 A2996 RMK A01 T02840104  RH  032%=      5-min Rain = 0
KFR1 172218Z 16007KT 28/11 A2996 RMK A01 T02830112  RH  035%=      5-min Rain = 0
KFR1 172219Z 17011KT 28/11 A2996 RMK A01 T02830114  RH  035%=      5-min Rain = 0
KFR1 172220Z 16009KT 28/11 A2995 RMK A01 T02830108  RH  034%=      5-min Rain = 0
KFR1 172221Z 17006KT 28/12 A2995 RMK A01 T02820117  RH  036%=      5-min Rain = 0
KFR1 172222Z 16009KT 28/11 A2995 RMK A01 T02830113  RH  035%=      5-min Rain = 0
KFR1 172223Z 16008KT 28/11 A2995 RMK A01 T02830109  RH  034%=      5-min Rain = 0
KFR1 172224Z 14007KT 28/11 A2995 RMK A01 T02820112  RH  035%=      5-min Rain = 0
KFR1 172225Z 15008KT 28/11 A2995 RMK A01 T02820108  RH  034%=      5-min Rain = 0
KFR1 172226Z 14008KT 28/11 A2995 RMK A01 T02820107  RH  034%=      5-min Rain = 0
KFR1 172227Z 14010KT 28/10 A2995 RMK A01 T02820104  RH  033%=      5-min Rain = 0
KFR1 172228Z 15007KT 28/11 A2995 RMK A01 T02820109  RH  034%=      5-min Rain = 0
KFR1 172229Z 15006G11KT 28/11 A2995 RMK A01 T02810109  RH  034%=      5-min Rain = 0
KFR1 172230Z 16008KT 28/12 A2995 RMK A01 T02810117  RH  036%=      5-min Rain = 0
KFR1 172231Z 15009KT 28/11 A2995 RMK A01 T02810114  RH  035%=      5-min Rain = 0
KFR1 172232Z 16009KT 28/11 A2995 RMK A01 T02810112  RH  035%=      5-min Rain = 0
KFR1 172233Z 17010KT 28/12 A2995 RMK A01 T02810115  RH  036%=      5-min Rain = 0
KFR1 172234Z 17011KT 28/11 A2995 RMK A01 T02810110  RH  034%=      5-min Rain = 0
KFR1 172235Z 17010KT 28/11 A2995 RMK A01 T02820112  RH  035%=      5-min Rain = 0
KFR1 172236Z 16011KT 28/11 A2995 RMK A01 T02820106  RH  033%=      5-min Rain = 0
KFR1 172237Z 15006KT 28/11 A2995 RMK A01 T02820114  RH  035%=      5-min Rain = 0
KFR1 172238Z 14010KT 28/10 A2995 RMK A01 T02820104  RH  033%=      5-min Rain = 0
KFR1 172239Z 15008KT 28/11 A2995 RMK A01 T02820106  RH  033%=      5-min Rain = 0
KFR1 172240Z 13006G11KT 28/11 A2995 RMK A01 T02830110  RH  034%=      5-min Rain = 0
KFR1 172241Z 14009KT 28/11 A2995 RMK A01 T02840107  RH  033%=      5-min Rain = 0
KFR1 172242Z 15008KT 28/11 A2995 RMK A01 T02840106  RH  033%=      5-min Rain = 0
KFR1 172243Z 15010KT 29/10 A2995 RMK A01 T02850104  RH  032%=      5-min Rain = 0
KFR1 172244Z 16010KT 28/10 A2995 RMK A01 T02840104  RH  032%=      5-min Rain = 0
KFR1 172245Z 16011KT 28/10 A2995 RMK A01 T02830100  RH  032%=      5-min Rain = 0
KFR1 172246Z 15008KT 28/10 A2995 RMK A01 T02820103  RH  033%=      5-min Rain = 0
KFR1 172247Z 14006KT 28/11 A2995 RMK A01 T02810106  RH  033%=      5-min Rain = 0
KFR1 172248Z 16008KT 28/11 A2995 RMK A01 T02820106  RH  034%=      5-min Rain = 0
KFR1 172249Z 16008G13KT 28/11 A2996 RMK A01 T02820110  RH  034%=      5-min Rain = 0
KFR1 172250Z 15009KT 28/10 A2996 RMK A01 T02830103  RH  032%=      5-min Rain = 0
KFR1 172251Z 16011KT 28/10 A2995 RMK A01 T02830101  RH  032%=      5-min Rain = 0
KFR1 172252Z 16009KT 28/10 A2995 RMK A01 T02830103  RH  033%=      5-min Rain = 0
KFR1 172253Z 16010KT 28/11 A2995 RMK A01 T02830105  RH  033%=      5-min Rain = 0
KFR1 172254Z 16011KT 28/11 A2995 RMK A01 T02840107  RH  033%=      5-min Rain = 0
KFR1 172255Z 16011KT 29/10 A2995 RMK A01 T02850103  RH  032%=      5-min Rain = 0
KFR1 172256Z 16012KT 29/10 A2995 RMK A01 T02850100  RH  031%=      5-min Rain = 0
KFR1 172257Z 17012KT 28/10 A2995 RMK A01 T02840102  RH  032%=      5-min Rain = 0
KFR1 172258Z 16012KT 28/10 A2995 RMK A01 T02830098  RH  031%=      5-min Rain = 0
KFR1 172259Z 15011KT 28/10 A2995 RMK A01 T02830097  RH  031%=      5-min Rain = 0
KFR1 172300Z 15009G14KT 28/09 A2995 RMK A01 T02820094  RH  031%=      5-min Rain = 0
KFR1 172301Z 14008G13KT 28/10 A2995 RMK A01 T02810099  RH  032%=      5-min Rain = 0
KFR1 172302Z 15009KT 28/10 A2995 RMK A01 T02800096  RH  032%=      5-min Rain = 0
KFR1 172303Z 16011KT 28/10 A2995 RMK A01 T02790100  RH  033%=      5-min Rain = 0
KFR1 172304Z 16009KT 28/10 A2995 RMK A01 T02790102  RH  033%=      5-min Rain = 0
KFR1 172305Z 15009KT 28/11 A2995 RMK A01 T02790105  RH  034%=      5-min Rain = 0
KFR1 172306Z 16007KT 28/11 A2995 RMK A01 T02780105  RH  034%=      5-min Rain = 0
KFR1 172307Z 15008KT 28/11 A2995 RMK A01 T02770108  RH  035%=      5-min Rain = 0
KFR1 172308Z 15008KT 28/11 A2995 RMK A01 T02770107  RH  035%=      5-min Rain = 0
KFR1 172309Z 15009KT 28/11 A2995 RMK A01 T02770106  RH  034%=      5-min Rain = 0
KFR1 172310Z 16012KT 28/10 A2995 RMK A01 T02770104  RH  034%=      5-min Rain = 0
KFR1 172311Z 16010KT 28/11 A2995 RMK A01 T02760105  RH  034%=      5-min Rain = 0
KFR1 172312Z 16009KT 28/11 A2995 RMK A01 T02760107  RH  035%=      5-min Rain = 0
KFR1 172313Z 17012KT 28/10 A2995 RMK A01 T02760104  RH  034%=      5-min Rain = 0
KFR1 172314Z 16010KT 28/10 A2995 RMK A01 T02760104  RH  034%=      5-min Rain = 0
KFR1 172315Z 16008KT 28/11 A2995 RMK A01 T02760107  RH  035%=      5-min Rain = 0
KFR1 172316Z 16009KT 28/11 A2995 RMK A01 T02760107  RH  035%=      5-min Rain = 0
KFR1 172317Z 16008KT 28/11 A2995 RMK A01 T02750108  RH  035%=      5-min Rain = 0
KFR1 172318Z 16010KT 28/11 A2995 RMK A01 T02760107  RH  035%=      5-min Rain = 0
KFR1 172319Z 16011KT 28/11 A2995 RMK A01 T02750106  RH  035%=      5-min Rain = 0
KFR1 172320Z 16010KT 28/11 A2995 RMK A01 T02750106  RH  035%=      5-min Rain = 0
KFR1 172321Z 16008KT 28/11 A2995 RMK A01 T02750107  RH  035%=      5-min Rain = 0
KFR1 172322Z 16009KT 28/11 A2995 RMK A01 T02750107  RH  035%=      5-min Rain = 0
KFR1 172323Z 16010KT 27/11 A2994 RMK A01 T02740109  RH  036%=      5-min Rain = 0
KFR1 172324Z 16008KT 27/11 A2994 RMK A01 T02740108  RH  036%=      5-min Rain = 0
KFR1 172325Z 15009KT 27/11 A2994 RMK A01 T02740109  RH  036%=      5-min Rain = 0
KFR1 172326Z 16008G13KT 27/11 A2994 RMK A01 T02740108  RH  036%=      5-min Rain = 0
KFR1 172327Z 17008KT 27/11 A2994 RMK A01 T02740110  RH  036%=      5-min Rain = 0
KFR1 172328Z 16010KT 27/11 A2994 RMK A01 T02740108  RH  036%=      5-min Rain = 0
KFR1 172329Z 16010KT 27/11 A2994 RMK A01 T02730107  RH  035%=      5-min Rain = 0
KFR1 172330Z 16009KT 27/11 A2994 RMK A01 T02730109  RH  036%=      5-min Rain = 0
KFR1 172331Z 16011KT 27/11 A2994 RMK A01 T02730110  RH  036%=      5-min Rain = 0
KFR1 172332Z 16010KT 27/11 A2994 RMK A01 T02730109  RH  036%=      5-min Rain = 0
KFR1 172333Z 16009KT 27/11 A2994 RMK A01 T02740112  RH  036%=      5-min Rain = 0
KFR1 172334Z 15010KT 27/11 A2994 RMK A01 T02730113  RH  037%=      5-min Rain = 0
KFR1 172335Z 16010KT 27/11 A2994 RMK A01 T02730113  RH  037%=      5-min Rain = 0
KFR1 172336Z 16010KT 27/11 A2994 RMK A01 T02720113  RH  037%=      5-min Rain = 0
KFR1 172337Z 15008KT 27/11 A2994 RMK A01 T02720113  RH  037%=      5-min Rain = 0
KFR1 172338Z 16009KT 27/11 A2994 RMK A01 T02720114  RH  037%=      5-min Rain = 0
KFR1 172339Z 15007KT 27/12 A2994 RMK A01 T02720116  RH  038%=      5-min Rain = 0
KFR1 172340Z 15008KT 27/12 A2994 RMK A01 T02710116  RH  038%=      5-min Rain = 0
KFR1 172341Z 15006KT 27/12 A2994 RMK A01 T02720118  RH  038%=      5-min Rain = 0
KFR1 172342Z 15007KT 27/12 A2994 RMK A01 T02710120  RH  039%=      5-min Rain = 0
KFR1 172343Z 15007KT 27/12 A2994 RMK A01 T02710120  RH  039%=      5-min Rain = 0
KFR1 172344Z 15008KT 27/12 A2994 RMK A01 T02710120  RH  039%=      5-min Rain = 0
KFR1 172345Z 15006KT 27/12 A2994 RMK A01 T02700121  RH  039%=      5-min Rain = 0
KFR1 172346Z 15006KT 27/12 A2994 RMK A01 T02710120  RH  039%=      5-min Rain = 0
KFR1 172347Z 15007KT 27/12 A2994 RMK A01 T02700122  RH  040%=      5-min Rain = 0
KFR1 172348Z 15005KT 27/12 A2994 RMK A01 T02700123  RH  040%=      5-min Rain = 0
KFR1 172349Z 15006KT 27/13 A2994 RMK A01 T02700127  RH  041%=      5-min Rain = 0
KFR1 172350Z 15008KT 27/12 A2994 RMK A01 T02690124  RH  041%=      5-min Rain = 0
KFR1 172351Z 15007KT 27/12 A2994 RMK A01 T02690124  RH  041%=      5-min Rain = 0
KFR1 172352Z 15006KT 27/12 A2994 RMK A01 T02680122  RH  040%=      5-min Rain = 0
KFR1 172353Z 15008G14KT 27/12 A2994 RMK A01 T02690123  RH  040%=      5-min Rain = 0
KFR1 172354Z 15008KT 27/12 A2994 RMK A01 T02680122  RH  040%=      5-min Rain = 0
KFR1 172355Z 14007KT 27/12 A2994 RMK A01 T02680123  RH  041%=      5-min Rain = 0
KFR1 172356Z 14007G12KT 27/12 A2993 RMK A01 T02680124  RH  041%=      5-min Rain = 0
KFR1 172357Z 14009KT 27/12 A2993 RMK A01 T02680122  RH  040%=      5-min Rain = 0
KFR1 172358Z 14006KT 27/12 A2993 RMK A01 T02670122  RH  041%=      5-min Rain = 0
KFR1 172359Z 15006KT 27/12 A2993 RMK A01 T02670123  RH  041%=      5-min Rain = 0
KFR1 180000Z 14009KT 27/12 A2993 RMK A01 T02670123  RH  041%=      5-min Rain = 0
KFR1 180001Z 13009KT 27/12 A2993 RMK A01 T02660121  RH  040%=      5-min Rain = 0
KFR1 180002Z 13009KT 27/12 A2993 RMK A01 T02660121  RH  040%=      5-min Rain = 0
KFR1 180003Z 13008KT 27/12 A2993 RMK A01 T02660121  RH  040%=      5-min Rain = 0
KFR1 180004Z 13009KT 27/12 A2993 RMK A01 T02660123  RH  041%=      5-min Rain = 0
KFR1 180005Z 14008KT 27/12 A2993 RMK A01 T02650124  RH  042%=      5-min Rain = 0
KFR1 180006Z 14009G14KT 26/12 A2993 RMK A01 T02640123  RH  041%=      5-min Rain = 0
KFR1 180007Z 14009KT 26/12 A2993 RMK A01 T02640123  RH  041%=      5-min Rain = 0
KFR1 180008Z 14008G13KT 26/12 A2993 RMK A01 T02640123  RH  041%=      5-min Rain = 0
KFR1 180009Z 14008KT 26/12 A2993 RMK A01 T02640124  RH  042%=      5-min Rain = 0
KFR1 180010Z 14007KT 26/13 A2993 RMK A01 T02640125  RH  042%=      5-min Rain = 0
KFR1 180011Z 14007KT 26/13 A2993 RMK A01 T02630126  RH  042%=      5-min Rain = 0
KFR1 180012Z 14006KT 26/13 A2993 RMK A01 T02630127  RH  043%=      5-min Rain = 0
KFR1 180013Z 13008KT 26/13 A2993 RMK A01 T02630126  RH  043%=      5-min Rain = 0
KFR1 180014Z 14008KT 26/13 A2993 RMK A01 T02630125  RH  042%=      5-min Rain = 0
KFR1 180015Z 14008KT 26/13 A2993 RMK A01 T02630127  RH  043%=      5-min Rain = 0
KFR1 180016Z 14008KT 26/13 A2993 RMK A01 T02620126  RH  043%=      5-min Rain = 0
KFR1 180017Z 14008KT 26/13 A2993 RMK A01 T02620127  RH  043%=      5-min Rain = 0
KFR1 180018Z 13007KT 26/13 A2993 RMK A01 T02620128  RH  043%=      5-min Rain = 0
KFR1 180019Z 14008KT 26/13 A2993 RMK A01 T02610127  RH  043%=      5-min Rain = 0
KFR1 180020Z 14007KT 26/13 A2993 RMK A01 T02620126  RH  043%=      5-min Rain = 0
KFR1 180021Z 14008KT 26/13 A2993 RMK A01 T02610127  RH  043%=      5-min Rain = 0
KFR1 180022Z 14008KT 26/13 A2993 RMK A01 T02610127  RH  043%=      5-min Rain = 0
KFR1 180023Z 14007KT 26/13 A2993 RMK A01 T02610128  RH  044%=      5-min Rain = 0
KFR1 180024Z 13008KT 26/13 A2993 RMK A01 T02600127  RH  044%=      5-min Rain = 0
KFR1 180025Z 13008KT 26/13 A2993 RMK A01 T02600126  RH  044%=      5-min Rain = 0
KFR1 180026Z 14008KT 26/13 A2993 RMK A01 T02600126  RH  043%=      5-min Rain = 0
KFR1 180027Z 14008KT 26/13 A2993 RMK A01 T02600126  RH  043%=      5-min Rain = 0
KFR1 180028Z 13008KT 26/13 A2993 RMK A01 T02590126  RH  044%=      5-min Rain = 0
KFR1 180029Z 13008KT 26/13 A2993 RMK A01 T02590126  RH  044%=      5-min Rain = 0
KFR1 180030Z 14008KT 26/13 A2993 RMK A01 T02590125  RH  043%=      5-min Rain = 0
KFR1 180031Z 13007KT 26/13 A2993 RMK A01 T02590125  RH  044%=      5-min Rain = 0
KFR1 180032Z 14008KT 26/13 A2993 RMK A01 T02580126  RH  044%=      5-min Rain = 0
KFR1 180033Z 14009KT 26/12 A2993 RMK A01 T02580124  RH  043%=      5-min Rain = 0
KFR1 180034Z 14009KT 26/12 A2993 RMK A01 T02580124  RH  043%=      5-min Rain = 0
KFR1 180035Z 14007KT 26/13 A2993 RMK A01 T02580125  RH  043%=      5-min Rain = 0
KFR1 180036Z 14008KT 26/13 A2993 RMK A01 T02580125  RH  044%=      5-min Rain = 0
KFR1 180037Z 14009KT 26/12 A2993 RMK A01 T02580124  RH  043%=      5-min Rain = 0
KFR1 180038Z 14007KT 26/12 A2993 RMK A01 T02570124  RH  044%=      5-min Rain = 0
KFR1 180039Z 14009KT 26/13 A2993 RMK A01 T02570125  RH  044%=      5-min Rain = 0
KFR1 180040Z 13009KT 26/12 A2993 RMK A01 T02570123  RH  043%=      5-min Rain = 0
KFR1 180041Z 14009KT 26/12 A2993 RMK A01 T02570123  RH  043%=      5-min Rain = 0
KFR1 180042Z 13009KT 26/12 A2993 RMK A01 T02570123  RH  043%=      5-min Rain = 0
KFR1 180043Z 13009KT 26/12 A2992 RMK A01 T02570122  RH  043%=      5-min Rain = 0
KFR1 180044Z 14009KT 26/12 A2992 RMK A01 T02570121  RH  043%=      5-min Rain = 0
KFR1 180045Z 14009KT 26/12 A2992 RMK A01 T02570121  RH  043%=      5-min Rain = 0
KFR1 180046Z 14008KT 26/12 A2992 RMK A01 T02570122  RH  043%=      5-min Rain = 0
KFR1 180047Z 14009KT 26/12 A2993 RMK A01 T02560121  RH  043%=      5-min Rain = 0
KFR1 180048Z 14009KT 26/12 A2993 RMK A01 T02560122  RH  043%=      5-min Rain = 0
KFR1 180049Z 13009KT 26/12 A2993 RMK A01 T02560121  RH  043%=      5-min Rain = 0
KFR1 180050Z 14009KT 26/12 A2993 RMK A01 T02550120  RH  043%=      5-min Rain = 0
KFR1 180051Z 14008KT 26/12 A2993 RMK A01 T02550121  RH  043%=      5-min Rain = 0
KFR1 180052Z 14009KT 25/12 A2993 RMK A01 T02540122  RH  044%=      5-min Rain = 0
KFR1 180053Z 14008KT 25/12 A2993 RMK A01 T02540121  RH  043%=      5-min Rain = 0
KFR1 180054Z 14008KT 25/12 A2993 RMK A01 T02540122  RH  044%=      5-min Rain = 0
KFR1 180055Z 14010KT 25/12 A2993 RMK A01 T02530121  RH  044%=      5-min Rain = 0
KFR1 180056Z 14009KT 25/12 A2992 RMK A01 T02530121  RH  044%=      5-min Rain = 0
KFR1 180057Z 14009KT 25/12 A2992 RMK A01 T02530121  RH  044%=      5-min Rain = 0
KFR1 180058Z 14009KT 25/12 A2992 RMK A01 T02530121  RH  044%=      5-min Rain = 0
KFR1 180059Z 14009KT 25/12 A2992 RMK A01 T02520121  RH  044%=      5-min Rain = 0
KFR1 180100Z 14008KT 25/12 A2992 RMK A01 T02520121  RH  044%=      5-min Rain = 0
KFR1 180101Z 14007KT 25/12 A2993 RMK A01 T02520121  RH  044%=      5-min Rain = 0
KFR1 180102Z 14009KT 25/12 A2993 RMK A01 T02510121  RH  044%=      5-min Rain = 0
KFR1 180103Z 14009KT 25/12 A2993 RMK A01 T02510120  RH  044%=      5-min Rain = 0
KFR1 180104Z 14008KT 25/12 A2993 RMK A01 T02510119  RH  044%=      5-min Rain = 0
KFR1 180105Z 15007KT 25/12 A2993 RMK A01 T02510120  RH  044%=      5-min Rain = 0
KFR1 180106Z 14008KT 25/12 A2993 RMK A01 T02500119  RH  044%=      5-min Rain = 0
KFR1 180107Z 15007KT 25/12 A2993 RMK A01 T02500120  RH  044%=      5-min Rain = 0
KFR1 180108Z 14006KT 25/12 A2993 RMK A01 T02500120  RH  044%=      5-min Rain = 0
KFR1 180109Z 15006KT 25/12 A2993 RMK A01 T02490120  RH  044%=      5-min Rain = 0
KFR1 180110Z 15007KT 25/12 A2993 RMK A01 T02490119  RH  044%=      5-min Rain = 0
KFR1 180111Z 15006KT 25/12 A2993 RMK A01 T02490120  RH  044%=      5-min Rain = 0
KFR1 180112Z 14008KT 25/12 A2993 RMK A01 T02480119  RH  044%=      5-min Rain = 0
KFR1 180113Z 15007G12KT 25/12 A2993 RMK A01 T02480119  RH  044%=      5-min Rain = 0
KFR1 180114Z 15006KT 25/12 A2993 RMK A01 T02480119  RH  045%=      5-min Rain = 0
KFR1 180115Z 15007KT 25/12 A2993 RMK A01 T02470119  RH  045%=      5-min Rain = 0
KFR1 180116Z 14008KT 25/12 A2993 RMK A01 T02470119  RH  045%=      5-min Rain = 0
KFR1 180117Z 14006KT 25/12 A2993 RMK A01 T02460119  RH  045%=      5-min Rain = 0
KFR1 180118Z 15007KT 25/12 A2993 RMK A01 T02460119  RH  045%=      5-min Rain = 0
KFR1 180119Z 15008KT 25/12 A2993 RMK A01 T02450119  RH  045%=      5-min Rain = 0
KFR1 180120Z 14007KT 25/12 A2993 RMK A01 T02450119  RH  045%=      5-min Rain = 0
KFR1 180121Z 15007KT 25/12 A2993 RMK A01 T02450120  RH  045%=      5-min Rain = 0
KFR1 180122Z 15006KT 24/12 A2993 RMK A01 T02440120  RH  046%=      5-min Rain = 0
KFR1 180123Z 14008KT 24/12 A2993 RMK A01 T02440120  RH  046%=      5-min Rain = 0
KFR1 180124Z 15007KT 24/12 A2993 RMK A01 T02430119  RH  046%=      5-min Rain = 0
KFR1 180125Z 15007KT 24/12 A2993 RMK A01 T02430119  RH  046%=      5-min Rain = 0
KFR1 180126Z 15007KT 24/12 A2993 RMK A01 T02430119  RH  046%=      5-min Rain = 0
KFR1 180127Z 14006KT 24/12 A2993 RMK A01 T02430120  RH  046%=      5-min Rain = 0
KFR1 180128Z 15006KT 24/12 A2993 RMK A01 T02420120  RH  046%=      5-min Rain = 0
KFR1 180129Z 16007KT 24/12 A2994 RMK A01 T02420120  RH  047%=      5-min Rain = 0
KFR1 180130Z 15006KT 24/12 A2994 RMK A01 T02410120  RH  047%=      5-min Rain = 0
KFR1 180131Z 16007KT 24/12 A2994 RMK A01 T02400120  RH  047%=      5-min Rain = 0
KFR1 180132Z 15007KT 24/12 A2994 RMK A01 T02400119  RH  047%=      5-min Rain = 0
KFR1 180133Z 15008KT 24/12 A2994 RMK A01 T02400120  RH  047%=      5-min Rain = 0
KFR1 180134Z 15007KT 24/12 A2994 RMK A01 T02400120  RH  047%=      5-min Rain = 0
KFR1 180135Z 16006KT 24/12 A2993 RMK A01 T02390120  RH  047%=      5-min Rain = 0
KFR1 180136Z 15005KT 24/12 A2993 RMK A01 T02390120  RH  047%=      5-min Rain = 0
KFR1 180137Z 15006KT 24/12 A2993 RMK A01 T02390120  RH  047%=      5-min Rain = 0
KFR1 180138Z 16008KT 24/12 A2993 RMK A01 T02390119  RH  047%=      5-min Rain = 0
KFR1 180139Z 14006KT 24/12 A2993 RMK A01 T02380119  RH  047%=      5-min Rain = 0
KFR1 180140Z 15007KT 24/12 A2993 RMK A01 T02390119  RH  047%=      5-min Rain = 0
KFR1 180141Z 15007KT 24/12 A2993 RMK A01 T02390120  RH  047%=      5-min Rain = 0
KFR1 180142Z 15007KT 24/12 A2993 RMK A01 T02380120  RH  048%=      5-min Rain = 0
KFR1 180143Z 15006KT 24/12 A2993 RMK A01 T02380120  RH  048%=      5-min Rain = 0
KFR1 180144Z 14006KT 24/12 A2993 RMK A01 T02380120  RH  048%=      5-min Rain = 0
KFR1 180145Z 14008KT 24/12 A2993 RMK A01 T02370120  RH  048%=      5-min Rain = 0
KFR1 180146Z 13008KT 24/12 A2993 RMK A01 T02370120  RH  048%=      5-min Rain = 0
KFR1 180147Z 14009KT 24/12 A2993 RMK A01 T02370120  RH  048%=      5-min Rain = 0
KFR1 180148Z 13009KT 24/12 A2993 RMK A01 T02370120  RH  048%=      5-min Rain = 0
KFR1 180149Z 13007KT 24/12 A2993 RMK A01 T02370120  RH  048%=      5-min Rain = 0
KFR1 180150Z 13009KT 24/12 A2993 RMK A01 T02360120  RH  048%=      5-min Rain = 0
KFR1 180151Z 13009KT 24/12 A2993 RMK A01 T02360119  RH  048%=      5-min Rain = 0
KFR1 180152Z 14008KT 24/12 A2993 RMK A01 T02360119  RH  048%=      5-min Rain = 0
KFR1 180153Z 13009KT 24/12 A2993 RMK A01 T02360118  RH  047%=      5-min Rain = 0
KFR1 180154Z 13007KT 24/12 A2993 RMK A01 T02370118  RH  047%=      5-min Rain = 0
KFR1 180155Z 14007KT 24/12 A2994 RMK A01 T02370118  RH  047%=      5-min Rain = 0
KFR1 180156Z 14008KT 24/12 A2994 RMK A01 T02370118  RH  047%=      5-min Rain = 0
KFR1 180157Z 13008KT 24/12 A2994 RMK A01 T02370118  RH  047%=      5-min Rain = 0
KFR1 180158Z 13008KT 24/12 A2993 RMK A01 T02370117  RH  047%=      5-min Rain = 0
KFR1 180159Z 13009KT 24/12 A2993 RMK A01 T02370117  RH  047%=      5-min Rain = 0
KFR1 180200Z 13008KT 24/12 A2993 RMK A01 T02370117  RH  047%=      5-min Rain = 0
KFR1 180201Z 13009KT 24/12 A2994 RMK A01 T02370116  RH  047%=      5-min Rain = 0
KFR1 180202Z 13008KT 24/12 A2994 RMK A01 T02370115  RH  046%=      5-min Rain = 0
KFR1 180203Z 14007KT 24/12 A2994 RMK A01 T02370116  RH  047%=      5-min Rain = 0
KFR1 180204Z 13008KT 24/12 A2994 RMK A01 T02370116  RH  047%=      5-min Rain = 0
KFR1 180205Z 13008KT 24/12 A2994 RMK A01 T02370116  RH  047%=      5-min Rain = 0
KFR1 180206Z 13009KT 24/12 A2994 RMK A01 T02370116  RH  047%=      5-min Rain = 0
KFR1 180207Z 13011KT 24/12 A2994 RMK A01 T02370116  RH  047%=      5-min Rain = 0
KFR1 180208Z 13010KT 24/12 A2994 RMK A01 T02370116  RH  047%=      5-min Rain = 0
KFR1 180209Z 14010KT 24/12 A2994 RMK A01 T02370116  RH  047%=      5-min Rain = 0
KFR1 180210Z 14008KT 24/12 A2994 RMK A01 T02370117  RH  047%=      5-min Rain = 0
KFR1 180211Z 14009KT 24/12 A2994 RMK A01 T02370117  RH  047%=      5-min Rain = 0
KFR1 180212Z 14008KT 24/12 A2994 RMK A01 T02370117  RH  047%=      5-min Rain = 0
KFR1 180213Z 14011KT 24/12 A2994 RMK A01 T02370117  RH  047%=      5-min Rain = 0
KFR1 180214Z 14010KT 24/12 A2994 RMK A01 T02370117  RH  047%=      5-min Rain = 0
KFR1 180215Z 14009KT 24/12 A2994 RMK A01 T02370117  RH  047%=      5-min Rain = 0
KFR1 180216Z 14008KT 24/12 A2995 RMK A01 T02360118  RH  048%=      5-min Rain = 0
KFR1 180217Z 15008KT 24/12 A2995 RMK A01 T02350119  RH  048%=      5-min Rain = 0
KFR1 180218Z 15008KT 23/12 A2995 RMK A01 T02340119  RH  048%=      5-min Rain = 0
KFR1 180219Z 15009KT 23/12 A2995 RMK A01 T02340119  RH  049%=      5-min Rain = 0
KFR1 180220Z 15011KT 23/12 A2996 RMK A01 T02330120  RH  049%=      5-min Rain = 0
KFR1 180221Z 16010KT 23/12 A2996 RMK A01 T02330120  RH  049%=      5-min Rain = 0
KFR1 180222Z 16009KT 23/12 A2996 RMK A01 T02320120  RH  049%=      5-min Rain = 0
KFR1 180223Z 16011KT 23/12 A2996 RMK A01 T02320121  RH  050%=      5-min Rain = 0
KFR1 180224Z 16010KT 23/12 A2997 RMK A01 T02310121  RH  050%=      5-min Rain = 0
KFR1 180225Z 16010KT 23/12 A2997 RMK A01 T02310122  RH  050%=      5-min Rain = 0
KFR1 180226Z 15010KT 23/12 A2997 RMK A01 T02300122  RH  050%=      5-min Rain = 0
KFR1 180227Z 15009KT 23/12 A2997 RMK A01 T02300122  RH  051%=      5-min Rain = 0
KFR1 180228Z 15010KT 23/12 A2997 RMK A01 T02300123  RH  051%=      5-min Rain = 0
KFR1 180229Z 15007KT 23/12 A2997 RMK A01 T02290123  RH  051%=      5-min Rain = 0
KFR1 180230Z 15008KT 23/12 A2997 RMK A01 T02290123  RH  051%=      5-min Rain = 0
KFR1 180231Z 15008KT 23/12 A2997 RMK A01 T02280123  RH  052%=      5-min Rain = 0
KFR1 180232Z 16010KT 23/12 A2997 RMK A01 T02280124  RH  052%=      5-min Rain = 0
KFR1 180233Z 16010KT 23/12 A2997 RMK A01 T02280124  RH  052%=      5-min Rain = 0
KFR1 180234Z 16010KT 23/12 A2997 RMK A01 T02280123  RH  052%=      5-min Rain = 0
KFR1 180235Z 16009G14KT 23/12 A2997 RMK A01 T02280124  RH  052%=      5-min Rain = 0
KFR1 180236Z 16010KT 23/12 A2997 RMK A01 T02270124  RH  052%=      5-min Rain = 0
KFR1 180237Z 16010KT 23/12 A2997 RMK A01 T02270124  RH  052%=      5-min Rain = 0
KFR1 180238Z 16011KT 23/12 A2997 RMK A01 T02270124  RH  052%=      5-min Rain = 0
KFR1 180239Z 16013KT 23/12 A2998 RMK A01 T02270123  RH  052%=      5-min Rain = 0
KFR1 180240Z 17011KT 23/12 A2998 RMK A01 T02270123  RH  052%=      5-min Rain = 0
KFR1 180241Z 17012KT 23/12 A2998 RMK A01 T02270124  RH  052%=      5-min Rain = 0
KFR1 180242Z 17012KT 23/12 A2998 RMK A01 T02270124  RH  052%=      5-min Rain = 0
KFR1 180243Z 17011KT 23/13 A2998 RMK A01 T02270125  RH  052%=      5-min Rain = 0
KFR1 180244Z 17012KT 23/12 A2998 RMK A01 T02270124  RH  052%=      5-min Rain = 0
KFR1 180245Z 17012KT 23/12 A2998 RMK A01 T02270124  RH  052%=      5-min Rain = 0
KFR1 180246Z 17011KT 23/12 A2998 RMK A01 T02280124  RH  052%=      5-min Rain = 0
KFR1 180247Z 17012KT 23/13 A2998 RMK A01 T02280125  RH  052%=      5-min Rain = 0
KFR1 180248Z 17010KT 23/13 A2998 RMK A01 T02280125  RH  052%=      5-min Rain = 0
KFR1 180249Z 17012KT 23/12 A2999 RMK A01 T02290124  RH  052%=      5-min Rain = 0
KFR1 180250Z 17010G15KT 23/13 A2999 RMK A01 T02290125  RH  052%=      5-min Rain = 0
KFR1 180251Z 17010KT 23/13 A2999 RMK A01 T02290126  RH  052%=      5-min Rain = 0
KFR1 180252Z 17011KT 23/13 A2999 RMK A01 T02290126  RH  052%=      5-min Rain = 0
KFR1 180253Z 17010KT 23/13 A2999 RMK A01 T02300126  RH  052%=      5-min Rain = 0
KFR1 180254Z 18011KT 23/13 A2999 RMK A01 T02300126  RH  052%=      5-min Rain = 0
KFR1 180255Z 17011KT 23/13 A30 RMK A01 T02310126  RH  052%=      5-min Rain = 0
KFR1 180256Z 18009KT 23/13 A30 RMK A01 T02310127  RH  052%=      5-min Rain = 0
KFR1 180257Z 18009KT 23/13 A30 RMK A01 T02310127  RH  052%=      5-min Rain = 0
KFR1 180258Z 18010KT 23/13 A30 RMK A01 T02310128  RH  052%=      5-min Rain = 0
KFR1 180259Z 18009KT 23/13 A30 RMK A01 T02310128  RH  052%=      5-min Rain = 0
KFR1 180300Z 18010KT 23/13 A30 RMK A01 T02310128  RH  052%=      5-min Rain = 0
KFR1 180301Z 19008KT 23/13 A3001 RMK A01 T02310128  RH  052%=      5-min Rain = 0
KFR1 180302Z 19010KT 23/13 A3001 RMK A01 T02310128  RH  052%=      5-min Rain = 0
KFR1 180303Z 19008KT 23/13 A3001 RMK A01 T02310129  RH  053%=      5-min Rain = 0
KFR1 180304Z 19010KT 23/13 A3001 RMK A01 T02300129  RH  053%=      5-min Rain = 0
KFR1 180305Z 20009KT 23/13 A3001 RMK A01 T02310128  RH  052%=      5-min Rain = 0
KFR1 180306Z 20008KT 23/13 A3001 RMK A01 T02310128  RH  052%=      5-min Rain = 0
KFR1 180307Z 20008KT 23/13 A3002 RMK A01 T02320128  RH  052%=      5-min Rain = 0
KFR1 180308Z 20007KT 23/13 A3002 RMK A01 T02320128  RH  052%=      5-min Rain = 0
KFR1 180309Z 22009KT 23/13 A3002 RMK A01 T02330129  RH  052%=      5-min Rain = 0
KFR1 180310Z 23009KT 23/13 A3002 RMK A01 T02330129  RH  052%=      5-min Rain = 0
KFR1 180311Z 23007KT 23/13 A3003 RMK A01 T02330130  RH  052%=      5-min Rain = 0
KFR1 180312Z 26007KT 23/13 A3003 RMK A01 T02330130  RH  052%=      5-min Rain = 0
KFR1 180313Z 26007KT 23/13 A3004 RMK A01 T02320130  RH  052%=      5-min Rain = 0
KFR1 180314Z 27007KT 23/13 A3004 RMK A01 T02320132  RH  053%=      5-min Rain = 0
KFR1 180315Z 27006KT 23/14 A3004 RMK A01 T02320136  RH  055%=      5-min Rain = 0
KFR1 180316Z 28007KT 23/14 A3004 RMK A01 T02310139  RH  056%=      5-min Rain = 0
KFR1 180317Z 29007KT 23/14 A3005 RMK A01 T02310144  RH  058%=      5-min Rain = 0
KFR1 180318Z 29008KT 23/14 A3005 RMK A01 T02310143  RH  057%=      5-min Rain = 0
KFR1 180319Z 29008KT 23/14 A3005 RMK A01 T02310139  RH  056%=      5-min Rain = 0
KFR1 180320Z 29011KT 23/14 A3005 RMK A01 T02310139  RH  056%=      5-min Rain = 0
KFR1 180321Z 29013KT 23/14 A3005 RMK A01 T02320136  RH  055%=      5-min Rain = 0
KFR1 180322Z 30011G20KT 23/14 A3005 RMK A01 T02320135  RH  054%=      5-min Rain = 0
KFR1 180323Z 30014G19KT 23/13 A3005 RMK A01 T02320133  RH  053%=      5-min Rain = 0
KFR1 180324Z 31019G26KT 23/13 A3005 RMK A01 T02320131  RH  053%=      5-min Rain = 0
KFR1 180325Z 31016G23KT 23/13 A3006 RMK A01 T02290132  RH  054%=      5-min Rain = 0
KFR1 180326Z 30013G21KT 23/13 A3007 RMK A01 T02260134  RH  056%=      5-min Rain = 0
KFR1 180327Z 31012KT 22/13 A3007 RMK A01 T02230134  RH  057%=      5-min Rain = 0
KFR1 180328Z 30010KT 22/13 A3007 RMK A01 T02190134  RH  058%=      5-min Rain = 0
KFR1 180329Z 31008KT 22/14 A3007 RMK A01 T02180135  RH  059%=      5-min Rain = 0
KFR1 180330Z 32009KT 22/14 A3008 RMK A01 T02160137  RH  061%=      5-min Rain = 0
KFR1 180331Z 32010G19KT 21/14 A3008 RMK A01 T02130140  RH  063%=      5-min Rain = 0
KFR1 180332Z 32009G15KT 21/14 A3008 RMK A01 T02100141  RH  065%=      5-min Rain = 0
KFR1 180333Z 31015KT 21/14 A3007 RMK A01 T02070140  RH  066%=      5-min Rain = 0
KFR1 180334Z 32014G21KT 21/14 A3007 RMK A01 T02050141  RH  067%=      5-min Rain = 0
KFR1 180335Z 31015G20KT 20/14 A3007 RMK A01 T02030141  RH  067%=      5-min Rain = 0
KFR1 180336Z 32016KT 20/14 A3007 RMK A01 T02020140  RH  067%=      5-min Rain = 0
KFR1 180337Z 32015KT 20/14 A3008 RMK A01 T02010141  RH  069%=      5-min Rain = 0
KFR1 180338Z 32013KT 20/14 A3008 RMK A01 T02000142  RH  069%=      5-min Rain = 0
KFR1 180339Z 30012KT 20/14 A3008 RMK A01 T01990142  RH  070%=      5-min Rain = 0
KFR1 180340Z 32011G16KT 20/14 A3008 RMK A01 T01980141  RH  069%=      5-min Rain = 0
KFR1 180341Z 33010G16KT 20/14 A3008 RMK A01 T01980141  RH  070%=      5-min Rain = 0
KFR1 180342Z 32011KT 20/14 A3008 RMK A01 T01970142  RH  070%=      5-min Rain = 0
KFR1 180343Z 32011KT 20/14 A3008 RMK A01 T01970141  RH  070%=      5-min Rain = 0
KFR1 180344Z 32010KT 20/14 A3008 RMK A01 T01960142  RH  071%=      5-min Rain = 0
KFR1 180345Z 32011KT 20/14 A3008 RMK A01 T01960142  RH  071%=      5-min Rain = 0
KFR1 180346Z 32008G13KT 20/14 A3008 RMK A01 T01960141  RH  070%=      5-min Rain = 0
KFR1 180347Z 32010KT 20/14 A3008 RMK A01 T01960142  RH  071%=      5-min Rain = 0
KFR1 180348Z 31008KT 20/14 A3008 RMK A01 T01950143  RH  072%=      5-min Rain = 0
KFR1 180349Z 32009G14KT 20/14 A3009 RMK A01 T01950144  RH  072%=      5-min Rain = 0
KFR1 180350Z 31010G15KT 20/14 A3009 RMK A01 T01960144  RH  072%=      5-min Rain = 0
KFR1 180351Z 31010G15KT 20/14 A3009 RMK A01 T01960143  RH  072%=      5-min Rain = 0
KFR1 180352Z 31010G15KT 20/14 A3009 RMK A01 T01950141  RH  071%=      5-min Rain = 0
KFR1 180353Z 31008KT 20/14 A3009 RMK A01 T01950141  RH  071%=      5-min Rain = 0
KFR1 180354Z 31009G15KT 20/14 A3009 RMK A01 T01950143  RH  072%=      5-min Rain = 0
KFR1 180355Z 31010KT 20/14 A3009 RMK A01 T01950141  RH  071%=      5-min Rain = 0
KFR1 180356Z 31010KT 20/14 A3009 RMK A01 T01950141  RH  071%=      5-min Rain = 0
KFR1 180357Z 31013G18KT 20/14 A3009 RMK A01 T01950140  RH  070%=      5-min Rain = 0
KFR1 180358Z 31013KT 20/14 A3009 RMK A01 T01950139  RH  070%=      5-min Rain = 0
KFR1 180359Z 30010G16KT 20/14 A3009 RMK A01 T01950139  RH  070%=      5-min Rain = 0
KFR1 180400Z 32009KT 20/14 A3009 RMK A01 T01950140  RH  070%=      5-min Rain = 0
KFR1 180401Z 32010G15KT 20/14 A3009 RMK A01 T01950139  RH  070%=      5-min Rain = 0
KFR1 180402Z 32011G16KT 20/14 A3009 RMK A01 T01950138  RH  070%=      5-min Rain = 0
KFR1 180403Z 32010KT 20/14 A3009 RMK A01 T01960138  RH  069%=      5-min Rain = 0
KFR1 180404Z 31009KT 20/14 A3009 RMK A01 T01960138  RH  069%=      5-min Rain = 0
KFR1 180405Z 32007G12KT 20/14 A3009 RMK A01 T01960138  RH  069%=      5-min Rain = 0
KFR1 180406Z 32009G15KT 20/14 A3009 RMK A01 T01960140  RH  070%=      5-min Rain = 0
KFR1 180407Z 30010G15KT 20/14 A3009 RMK A01 T01960137  RH  069%=      5-min Rain = 0
KFR1 180408Z 31008G14KT 20/14 A3009 RMK A01 T01970136  RH  068%=      5-min Rain = 0
KFR1 180409Z 31009KT 20/14 A3009 RMK A01 T01970136  RH  068%=      5-min Rain = 0
KFR1 180410Z 31006KT 20/14 A3009 RMK A01 T01980136  RH  067%=      5-min Rain = 0
KFR1 180411Z 30008KT 20/14 A3009 RMK A01 T01980136  RH  067%=      5-min Rain = 0
KFR1 180412Z 30007KT 20/14 A3009 RMK A01 T01990136  RH  067%=      5-min Rain = 0
KFR1 180413Z 30006KT 20/14 A3009 RMK A01 T01990135  RH  067%=      5-min Rain = 0
KFR1 180414Z 30009G14KT 20/13 A3009 RMK A01 T01990134  RH  066%=      5-min Rain = 0
KFR1 180415Z 30007KT 20/13 A3009 RMK A01 T02000131  RH  064%=      5-min Rain = 0
KFR1 180416Z 30011G16KT 20/13 A3009 RMK A01 T02010131  RH  064%=      5-min Rain = 0
KFR1 180417Z 30010KT 20/13 A3009 RMK A01 T02010130  RH  064%=      5-min Rain = 0
KFR1 180418Z 30009G15KT 20/13 A3009 RMK A01 T02020130  RH  063%=      5-min Rain = 0
KFR1 180419Z 30009KT 20/13 A3009 RMK A01 T02020130  RH  063%=      5-min Rain = 0
KFR1 180420Z 30007G12KT 20/13 A3009 RMK A01 T02030130  RH  063%=      5-min Rain = 0
KFR1 180421Z 30007G15KT 20/13 A3008 RMK A01 T02030129  RH  062%=      5-min Rain = 0
KFR1 180422Z 31008KT 20/13 A3009 RMK A01 T02040128  RH  061%=      5-min Rain = 0
KFR1 180423Z 29009G15KT 21/13 A3009 RMK A01 T02050127  RH  061%=      5-min Rain = 0
KFR1 180424Z 30010KT 21/13 A3008 RMK A01 T02060126  RH  060%=      5-min Rain = 0
KFR1 180425Z 30009G14KT 21/13 A3008 RMK A01 T02070127  RH  060%=      5-min Rain = 0
KFR1 180426Z 30006KT 21/13 A3008 RMK A01 T02070127  RH  060%=      5-min Rain = 0
KFR1 180427Z 30008KT 21/13 A3008 RMK A01 T02070128  RH  060%=      5-min Rain = 0
KFR1 180428Z 30007KT 21/13 A3008 RMK A01 T02070127  RH  060%=      5-min Rain = 0
KFR1 180429Z 30007KT 21/13 A3008 RMK A01 T02070127  RH  060%=      5-min Rain = 0
KFR1 180430Z 31008KT 21/13 A3008 RMK A01 T02060128  RH  061%=      5-min Rain = 0
KFR1 180431Z 29009KT 21/13 A3008 RMK A01 T02060125  RH  060%=      5-min Rain = 0
KFR1 180432Z 31006G11KT 21/12 A3008 RMK A01 T02060122  RH  059%=      5-min Rain = 0
KFR1 180433Z 27003KT 21/12 A3007 RMK A01 T02060123  RH  059%=      5-min Rain = 0
KFR1 180434Z 27003KT 21/13 A3007 RMK A01 T02060125  RH  059%=      5-min Rain = 0
KFR1 180435Z 28004KT 21/13 A3007 RMK A01 T02060125  RH  060%=      5-min Rain = 0
KFR1 180436Z 24004KT 21/13 A3007 RMK A01 T02060126  RH  060%=      5-min Rain = 0
KFR1 180437Z 26003KT 21/13 A3007 RMK A01 T02050128  RH  061%=      5-min Rain = 0
KFR1 180438Z 26002KT 20/13 A3006 RMK A01 T02040129  RH  062%=      5-min Rain = 0
KFR1 180439Z 26001KT 20/13 A3006 RMK A01 T02040128  RH  062%=      5-min Rain = 0
KFR1 180440Z 26000KT 20/13 A3006 RMK A01 T02040128  RH  062%=      5-min Rain = 0
KFR1 180441Z 26001KT 20/13 A3006 RMK A01 T02030128  RH  062%=      5-min Rain = 0
KFR1 180442Z 27000KT 20/13 A3006 RMK A01 T02030128  RH  062%=      5-min Rain = 0
KFR1 180443Z 06000KT 20/13 A3005 RMK A01 T02030128  RH  062%=      5-min Rain = 0
KFR1 180444Z 08002KT 20/13 A3005 RMK A01 T02020127  RH  062%=      5-min Rain = 0
KFR1 180445Z 09003KT 20/13 A3004 RMK A01 T02020127  RH  062%=      5-min Rain = 0
KFR1 180446Z 08003KT 20/13 A3004 RMK A01 T02020128  RH  062%=      5-min Rain = 0
KFR1 180447Z 08004KT 20/13 A3004 RMK A01 T02010129  RH  063%=      5-min Rain = 0
KFR1 180448Z 07004KT 20/13 A3004 RMK A01 T02000131  RH  064%=      5-min Rain = 0
KFR1 180449Z 07003KT 20/13 A3004 RMK A01 T01990130  RH  064%=      5-min Rain = 0
KFR1 180450Z 04002KT 20/13 A3004 RMK A01 T01990130  RH  065%=      5-min Rain = 0
KFR1 180451Z 06002KT 20/13 A3004 RMK A01 T01990131  RH  065%=      5-min Rain = 0
KFR1 180452Z 11004KT 20/13 A3003 RMK A01 T01990132  RH  065%=      5-min Rain = 0
KFR1 180453Z 10006KT 20/13 A3003 RMK A01 T01990134  RH  066%=      5-min Rain = 0
KFR1 180454Z 10007KT 20/14 A3002 RMK A01 T01980137  RH  068%=      5-min Rain = 0
KFR1 180455Z 11008KT 20/14 A3002 RMK A01 T01960137  RH  069%=      5-min Rain = 0
KFR1 180456Z 11009KT 19/14 A3001 RMK A01 T01940138  RH  070%=      5-min Rain = 0
KFR1 180457Z 11009KT 19/14 A3001 RMK A01 T01930137  RH  070%=      5-min Rain = 0
KFR1 180458Z 12008KT 19/14 A3001 RMK A01 T01920137  RH  070%=      5-min Rain = 0
KFR1 180459Z 13008KT 19/14 A3001 RMK A01 T01920136  RH  070%=      5-min Rain = 0

Page generated in 0.0776 seconds.